Data for 07/06/2009

Time Sea-Level Adjusted Pressure Absolute Pressure Temperature Relative Humidity Dew Point Precipitation   
(mb) (inHg) (mb) (inHg) (C) (F) (%) (C) (F) (mm) (in)
00:01 1021 30.15 850 25.1 16.5 61.7 58 8.4 47.1 16.82 0.662
00:02 1021 30.15 850 25.1 16.5 61.8 59 8.5 47.2 16.83 0.663
00:03 1021 30.15 850 25.1 16.4 61.6 60 8.8 47.8 16.8 0.661
00:04 1021 30.15 850 25.1 16.2 61.2 61 8.8 47.9 16.59 0.653
00:05 1021 30.15 850 25.1 16 60.8 62 8.9 48 16.4 0.646
00:06 1021 30.15 850 25.1 15.8 60.4 63 8.9 48 16.2 0.638
00:07 1021 30.15 850 25.1 15.7 60.2 64 8.9 48 16.04 0.631
00:08 1021 30.15 850 25.1 15.5 59.9 65 8.9 48.1 15.9 0.626
00:09 1021 30.15 850 25.1 15.3 59.6 64 8.7 47.7 15.76 0.62
00:10 1021 30.15 850 25.1 15.3 59.5 65 8.7 47.7 15.66 0.617
00:11 1021 30.15 850 25.1 15.1 59.3 66 8.8 47.9 15.54 0.612
00:12 1021 30.15 850 25.1 15 58.9 66 8.7 47.6 15.37 0.605
00:13 1021 30.15 850 25.1 14.9 58.8 66 8.7 47.6 15.29 0.602
00:14 1021 30.15 850 25.1 14.8 58.7 67 8.8 47.9 15.22 0.599
00:15 1021 30.15 850 25.1 14.7 58.4 65 8.3 46.9 15.08 0.594
00:16 1021 30.15 850 25.1 14.8 58.7 63 7.9 46.2 15.22 0.599
00:17 1021 30.15 850 25.1 15.1 59.2 61 7.8 46.1 15.41 0.607
00:18 1021 30.15 850 25.1 15.2 59.4 63 8.3 47 15.52 0.611
00:19 1021 30.15 850 25.1 15.2 59.3 61 7.8 46.1 15.53 0.611
00:20 1021 30.15 850 25.1 15.4 59.7 62 8.1 46.6 15.65 0.616
00:21 1021 30.15 850 25.1 15.5 59.8 62 8.2 46.8 15.72 0.619
00:22 1021 30.15 850 25.1 15.5 59.9 60 7.8 46.1 15.81 0.622
00:23 1021 30.15 850 25.1 15.6 60 60 7.9 46.2 15.84 0.624
00:24 1021 30.15 850 25.1 15.7 60.2 59 7.8 46 15.99 0.63
00:25 1021 30.15 850 25.1 15.8 60.5 59 8 46.4 16.05 0.632
00:26 1021 30.15 850 25.1 15.8 60.4 60 8.2 46.8 16.07 0.633
00:27 1021 30.15 850 25.1 15.6 60.1 61 8.3 46.9 15.96 0.628
00:28 1021 30.15 850 25.1 15.6 60 61 8.1 46.6 15.91 0.626
00:29 1021 30.15 850 25.1 15.5 59.9 61 8 46.4 15.87 0.625
00:30 1021 30.15 850 25.1 15.6 60 60 8 46.5 15.93 0.627
00:31 1021 30.15 850 25.1 15.6 60.1 60 8 46.3 15.94 0.628
00:32 1021 30.15 850 25.1 15.6 60.2 60 8 46.5 15.99 0.63
00:33 1021 30.15 850 25.1 15.6 60.2 60 7.9 46.2 16.02 0.631
00:34 1021 30.15 850 25.1 15.7 60.3 59 7.9 46.2 16.15 0.636
00:35 1021 30.15 850 25.1 15.9 60.5 59 7.9 46.2 16.25 0.64
00:36 1021 30.15 850 25.1 15.9 60.7 59 8 46.4 16.35 0.644
00:37 1021 30.15 850 25.1 16 60.8 60 8.2 46.8 16.32 0.643
00:38 1021 30.15 850 25.1 15.9 60.7 60 8.2 46.7 16.27 0.641
00:39 1021 30.15 850 25.1 15.9 60.7 60 8.4 47.1 16.25 0.64
00:40 1021 30.15 850 25.1 15.9 60.5 61 8.4 47.2 16.25 0.64
00:41 1021 30.15 850 25.1 15.8 60.4 62 8.6 47.5 16.12 0.635
00:42 1021 30.15 850 25.1 15.7 60.2 62 8.5 47.4 16.02 0.631
00:43 1021 30.15 850 25.1 15.7 60.2 62 8.5 47.2 16.08 0.633
00:44 1021 30.15 850 25.1 15.8 60.4 62 8.6 47.5 16.13 0.635
00:45 1021 30.15 850 25.1 15.7 60.3 62 8.6 47.5 16.13 0.635
00:46 1021 30.15 850 25.1 15.7 60.3 63 8.8 47.9 16.06 0.632
00:47 1021 30.15 850 25.1 15.6 60.1 63 8.8 47.8 16 0.63
00:48 1021 30.15 850 25.1 15.6 60 64 8.8 47.9 15.9 0.626
00:49 1021 30.15 850 25.1 15.5 59.9 64 8.8 47.8 15.92 0.627
00:50 1021 30.15 850 25.1 15.4 59.8 64 8.8 47.8 15.84 0.624
00:51 1021 30.15 850 25.1 15.4 59.8 64 8.8 47.9 15.83 0.623
00:52 1021 30.15 850 25.1 15.4 59.7 65 8.9 48.1 15.71 0.619
00:53 1021 30.15 850 25.1 15.3 59.6 65 8.8 47.9 15.66 0.617
00:54 1021 30.15 850 25.1 15.2 59.4 65 8.8 47.9 15.61 0.615
00:55 1021 30.15 850 25.1 15.3 59.5 65 8.8 47.8 15.6 0.614
00:56 1021 30.15 850 25.1 15.3 59.5 65 8.8 47.8 15.65 0.616
00:57 1021 30.15 850 25.1 15.3 59.6 64 8.7 47.6 15.68 0.617
00:58 1021 30.15 850 25.1 15.4 59.7 64 8.8 47.8 15.77 0.621
00:59 1021 30.15 850 25.1 15.5 59.8 64 8.8 47.8 15.78 0.621
01:00 1021 30.15 850 25.1 15.5 59.9 63 8.7 47.6 15.89 0.626
01:01 1021 30.15 850 25.1 15.6 60.1 63 8.7 47.6 15.96 0.628
01:02 1021 30.15 850 25.1 15.6 60.1 63 8.8 47.8 15.96 0.628
01:03 1021 30.15 850 25.1 15.6 60.1 63 8.7 47.7 15.99 0.63
01:04 1021 30.15 850 25.1 15.7 60.2 63 8.6 47.5 15.97 0.629
01:05 1021 30.15 850 25.1 15.6 60.1 64 8.9 48 15.98 0.629
01:06 1021 30.15 850 25.1 15.6 60.1 64 8.9 48 15.94 0.628
01:07 1021 30.15 850 25.1 15.5 60 64 8.8 47.9 15.89 0.626
01:08 1021 30.15 850 25.1 15.5 60 63 8.5 47.4 15.87 0.625
01:09 1021 30.15 850 25.1 15.6 60 63 8.6 47.5 15.95 0.628
01:10 1021 30.15 850 25.1 15.6 60.1 62 8.5 47.3 15.99 0.63
01:11 1021 30.15 850 25.1 15.7 60.2 63 8.7 47.7 16.01 0.63
01:12 1021 30.15 850 25.1 15.7 60.3 61 8.3 46.9 16.08 0.633
01:13 1021 30.15 850 25.1 15.9 60.5 61 8.5 47.3 16.25 0.64
01:14 1021 30.15 850 25.1 16 60.7 60 8.4 47.1 16.31 0.642
01:15 1021 30.15 850 25.1 16 60.7 61 8.6 47.4 16.35 0.644
01:16 1021 30.15 850 25.1 16 60.8 61 8.6 47.5 16.32 0.643
01:17 1021 30.15 850 25.1 15.9 60.6 62 8.8 47.8 16.26 0.64
01:18 1021 30.15 850 25.1 15.8 60.5 63 8.9 48 16.17 0.637
01:19 1021 30.15 850 25.1 15.7 60.2 63 8.8 47.9 16.07 0.633
01:20 1021 30.15 850 25.1 15.6 60.1 64 8.8 47.9 15.98 0.629
01:21 1021 30.15 850 25.1 15.5 59.8 65 8.9 48 15.86 0.624
01:22 1021 30.15 850 25.1 15.4 59.8 64 8.7 47.6 15.81 0.622
01:23 1021 30.15 850 25.1 15.4 59.7 64 8.8 47.8 15.82 0.623
01:24 1021 30.15 850 25.1 15.4 59.7 64 8.6 47.5 15.8 0.622
01:25 1021 30.15 850 25.1 15.5 59.8 64 8.7 47.6 15.84 0.624
01:26 1021 30.15 850 25.1 15.5 59.8 64 8.7 47.7 15.82 0.623
01:27 1021 30.15 850 25.1 15.5 59.8 64 8.8 47.8 15.82 0.623
01:28 1021 30.15 850 25.1 15.4 59.8 65 9 48.1 15.77 0.621
01:29 1021 30.15 850 25.1 15.3 59.6 65 8.9 48 15.72 0.619
01:30 1021 30.15 850 25.1 15.2 59.4 65 8.9 48 15.65 0.616
01:31 1021 30.15 850 25.1 15.2 59.4 65 8.8 47.9 15.62 0.615
01:32 1021 30.15 850 25.1 15.3 59.5 65 8.8 47.8 15.62 0.615
01:33 1021 30.15 850 25.1 15.2 59.3 66 9 48.2 15.58 0.613
01:34 1021 30.15 850 25.1 15.1 59.1 68 9.2 48.5 15.46 0.609
01:35 1021 30.15 850 25.1 14.9 58.8 68 9.2 48.6 15.32 0.603
01:36 1021 30.15 850 25.1 14.8 58.6 69 9.2 48.5 15.15 0.596
01:37 1021 30.15 850 25.1 14.7 58.5 69 9.1 48.3 15.08 0.594
01:38 1021 30.15 850 25.1 14.7 58.4 68 8.9 48.1 15.07 0.593
01:39 1021 30.15 850 25.1 14.7 58.5 67 8.8 47.8 15.1 0.594
01:40 1021 30.15 850 25.1 14.8 58.7 68 9 48.2 15.18 0.598
01:41 1021 30.15 850 25.1 14.8 58.7 68 9.1 48.3 15.19 0.598
01:42 1021 30.15 850 25.1 14.8 58.6 67 8.9 48 15.17 0.597
01:43 1021 30.15 850 25.1 14.9 58.8 67 8.9 48 15.22 0.599
01:44 1021 30.15 850 25.1 14.9 58.8 67 8.9 47.9 15.24 0.6
01:45 1021 30.15 850 25.1 15 58.9 66 8.8 47.9 15.33 0.604
01:46 1021 30.15 850 25.1 15 59.1 66 8.8 47.9 15.4 0.606
01:47 1021 30.15 850 25.1 15.1 59.2 66 8.8 47.9 15.4 0.606
01:48 1021 30.15 850 25.1 15.1 59.3 65 8.7 47.6 15.49 0.61
01:49 1021 30.15 850 25.1 15.2 59.4 64 8.4 47.2 15.59 0.614
01:50 1021 30.15 850 25.1 15.4 59.8 64 8.7 47.7 15.76 0.62
01:51 1021 30.15 850 25.1 15.4 59.8 63 8.5 47.4 15.8 0.622
01:52 1021 30.15 850 25.1 15.5 59.9 64 8.8 47.8 15.84 0.624
01:53 1021 30.15 850 25.1 15.4 59.8 66 9.1 48.4 15.76 0.62
01:54 1021 30.15 850 25.1 15.3 59.5 66 9.1 48.4 15.63 0.615
01:55 1021 30.15 850 25.1 15.1 59.3 66 9 48.1 15.53 0.611
01:56 1021 30.15 850 25.1 15.1 59.2 67 9.1 48.4 15.48 0.609
01:57 1021 30.15 850 25.1 15 59 68 9.2 48.6 15.38 0.606
01:58 1021 30.15 850 25.1 14.9 58.9 68 9.1 48.4 15.28 0.602
01:59 1021 30.15 850 25.1 14.9 58.7 68 9 48.3 15.29 0.602
02:00 1020 30.12 850 25.1 14.8 58.7 67 8.9 48 15.24 0.6
02:01 1020 30.12 850 25.1 14.8 58.7 68 9.1 48.3 15.18 0.598
02:02 1020 30.12 850 25.1 14.7 58.4 68 9 48.2 15.05 0.593
02:03 1020 30.12 849 25.07 14.6 58.2 68 8.9 48 14.97 0.589
02:04 1020 30.12 849 25.07 14.5 58.1 69 8.9 47.9 14.9 0.587
02:05 1020 30.12 850 25.1 14.5 58.1 69 8.9 48 14.88 0.586
02:06 1020 30.12 850 25.1 14.5 58 69 8.9 47.9 14.82 0.583
02:07 1020 30.12 849 25.07 14.5 58.1 67 8.6 47.5 14.89 0.586
02:08 1020 30.12 849 25.07 14.7 58.4 66 8.5 47.4 15.01 0.591
02:09 1020 30.12 849 25.07 14.8 58.6 67 8.7 47.7 15.11 0.595
02:10 1020 30.12 849 25.07 14.8 58.6 67 8.8 47.9 15.1 0.594
02:11 1020 30.12 849 25.07 14.7 58.4 68 8.9 48 15.04 0.592
02:12 1020 30.12 849 25.07 14.6 58.3 68 8.9 48 14.98 0.59
02:13 1020 30.12 849 25.07 14.6 58.4 67 8.7 47.7 15.01 0.591
02:14 1020 30.12 849 25.07 14.7 58.5 66 8.5 47.3 15.11 0.595
02:15 1020 30.12 849 25.07 14.9 58.8 65 8.5 47.3 15.31 0.603
02:16 1020 30.12 849 25.07 15 59.1 64 8.4 47.2 15.46 0.609
02:17 1020 30.12 849 25.07 15.2 59.4 64 8.5 47.3 15.56 0.613
02:18 1020 30.12 849 25.07 15.3 59.6 63 8.3 47 15.67 0.617
02:19 1020 30.12 849 25.07 15.5 59.8 62 8.4 47.1 15.84 0.624
02:20 1020 30.12 849 25.07 15.6 60 62 8.5 47.2 15.9 0.626
02:21 1020 30.12 849 25.07 15.6 60.1 62 8.5 47.3 15.93 0.627
02:22 1020 30.12 849 25.07 15.6 60 63 8.5 47.4 15.94 0.628
02:23 1020 30.12 849 25.07 15.6 60 62 8.4 47.2 15.97 0.629
02:24 1020 30.12 849 25.07 15.6 60.1 62 8.5 47.3 15.95 0.628
02:25 1020 30.12 849 25.07 15.6 60.1 62 8.5 47.3 15.93 0.627
02:26 1020 30.12 849 25.07 15.6 60.1 62 8.5 47.3 15.94 0.628
02:27 1020 30.12 849 25.07 15.7 60.2 63 8.7 47.6 15.98 0.629
02:28 1020 30.12 849 25.07 15.6 60.1 63 8.5 47.4 15.96 0.628
02:29 1020 30.12 849 25.07 15.6 60.1 63 8.6 47.4 15.96 0.628
02:30 1020 30.12 849 25.07 15.6 60 63 8.5 47.4 15.94 0.628
02:31 1020 30.12 849 25.07 15.6 60 62 8.5 47.2 15.88 0.625
02:32 1020 30.12 849 25.07 15.6 60 62 8.5 47.2 15.91 0.626
02:33 1020 30.12 849 25.07 15.5 60 62 8.5 47.3 15.92 0.627
02:34 1020 30.12 849 25.07 15.6 60 62 8.5 47.2 15.92 0.627
02:35 1020 30.12 849 25.07 15.6 60 62 8.5 47.3 15.9 0.626
02:36 1020 30.12 849 25.07 15.6 60 62 8.4 47 15.9 0.626
02:37 1020 30.12 849 25.07 15.5 60 63 8.6 47.5 15.91 0.626
02:38 1020 30.12 849 25.07 15.5 59.9 62 8.5 47.2 15.85 0.624
02:39 1020 30.12 849 25.07 15.5 60 63 8.5 47.3 15.86 0.624
02:40 1020 30.12 849 25.07 15.5 59.9 63 8.5 47.3 15.86 0.624
02:41 1020 30.12 849 25.07 15.5 59.8 64 8.6 47.6 15.82 0.623
02:42 1020 30.12 849 25.07 15.4 59.8 62 8.1 46.7 15.84 0.624
02:43 1020 30.12 849 25.07 15.6 60.1 61 8.2 46.8 15.95 0.628
02:44 1020 30.12 849 25.07 15.7 60.3 61 8.3 47 16.1 0.634
02:45 1020 30.12 849 25.07 15.8 60.5 61 8.3 46.9 16.2 0.638
02:46 1020 30.12 850 25.1 16 60.7 60 8.3 47 16.29 0.641
02:47 1020 30.12 850 25.1 16 60.8 61 8.5 47.3 16.32 0.643
02:48 1020 30.12 850 25.1 16 60.7 61 8.6 47.5 16.32 0.643
02:49 1020 30.12 850 25.1 15.9 60.6 62 8.6 47.5 16.21 0.638
02:50 1020 30.12 850 25.1 15.9 60.6 61 8.4 47.2 16.25 0.64
02:51 1021 30.15 850 25.1 15.9 60.7 61 8.5 47.4 16.31 0.642
02:52 1021 30.15 850 25.1 15.9 60.6 63 9 48.1 16.24 0.639
02:53 1021 30.15 850 25.1 15.7 60.2 64 9 48.1 16.08 0.633
02:54 1021 30.15 850 25.1 15.5 59.9 66 9.2 48.5 15.9 0.626
02:55 1021 30.15 850 25.1 15.5 59.8 65 8.9 48 15.88 0.625
02:56 1021 30.15 850 25.1 15.5 59.8 65 9 48.2 15.82 0.623
02:57 1021 30.15 850 25.1 15.3 59.5 66 8.9 48.1 15.72 0.619
02:58 1021 30.15 850 25.1 15.2 59.3 68 9.4 48.9 15.6 0.614
02:59 1021 30.15 850 25.1 14.9 58.9 70 9.5 49.1 15.38 0.606
03:00 1021 30.15 850 25.1 14.7 58.5 71 9.5 49.2 15.19 0.598
03:01 1021 30.15 850 25.1 14.5 58 72 9.6 49.2 14.94 0.588
03:02 1021 30.15 850 25.1 14.3 57.7 73 9.5 49.1 14.75 0.581
03:03 1021 30.15 850 25.1 14.1 57.4 72 9.2 48.6 14.6 0.575
03:04 1021 30.15 850 25.1 14.1 57.4 71 9.1 48.3 14.56 0.573
03:05 1021 30.15 850 25.1 14.2 57.6 72 9.3 48.7 14.58 0.574
03:06 1021 30.15 850 25.1 14.1 57.4 73 9.4 48.9 14.54 0.572
03:07 1020 30.12 850 25.1 14.1 57.3 73 9.4 48.9 14.45 0.569
03:08 1020 30.12 850 25.1 14 57.2 74 9.5 49.1 14.41 0.567
03:09 1020 30.12 850 25.1 13.9 57.1 75 9.6 49.3 14.33 0.564
03:10 1020 30.12 850 25.1 13.8 56.9 76 9.6 49.3 14.26 0.561
03:11 1020 30.12 850 25.1 13.8 56.8 75 9.5 49.1 14.16 0.557
03:12 1020 30.12 850 25.1 13.8 56.9 75 9.5 49 14.18 0.558
03:13 1020 30.12 850 25.1 13.9 57 75 9.6 49.2 14.21 0.559
03:14 1020 30.12 850 25.1 13.9 57.1 74 9.5 49.1 14.25 0.561
03:15 1020 30.12 850 25.1 14 57.1 74 9.5 49 14.29 0.563
03:16 1020 30.12 850 25.1 14.1 57.3 74 9.6 49.2 14.33 0.564
03:17 1020 30.12 849 25.07 14.1 57.3 75 9.8 49.6 14.36 0.565
03:18 1020 30.12 850 25.1 14 57.2 76 10 50 14.27 0.562
03:19 1020 30.12 850 25.1 13.9 56.9 77 9.9 49.7 14.16 0.557
03:20 1020 30.12 849 25.07 13.8 56.8 77 9.9 49.8 14.1 0.555
03:21 1020 30.12 849 25.07 13.7 56.6 78 9.8 49.7 14.02 0.552
03:22 1020 30.12 849 25.07 13.6 56.5 78 9.8 49.7 14.01 0.552
03:23 1020 30.12 849 25.07 13.6 56.5 78 9.8 49.7 14.03 0.552
03:24 1020 30.12 849 25.07 13.6 56.5 77 9.7 49.5 14.07 0.554
03:25 1020 30.12 849 25.07 13.7 56.7 76 9.7 49.4 14.12 0.556
03:26 1020 30.12 849 25.07 13.9 56.9 72 9 48.1 14.27 0.562
03:27 1020 30.12 849 25.07 14.3 57.8 71 9.1 48.4 14.7 0.579
03:28 1020 30.12 849 25.07 14.7 58.4 69 9.2 48.6 14.99 0.59
03:29 1020 30.12 849 25.07 14.9 58.9 69 9.3 48.8 15.2 0.598
03:30 1020 30.12 849 25.07 15.1 59.2 68 9.3 48.7 15.36 0.605
03:31 1020 30.12 849 25.07 15.2 59.4 68 9.3 48.8 15.45 0.608
03:32 1020 30.12 849 25.07 15.3 59.5 68 9.5 49.1 15.53 0.611
03:33 1020 30.12 849 25.07 15.2 59.4 68 9.4 48.9 15.53 0.611
03:34 1020 30.12 849 25.07 15.4 59.6 65 8.8 47.9 15.59 0.614
03:35 1020 30.12 849 25.07 15.7 60.2 63 8.6 47.5 15.93 0.627
03:36 1020 30.12 849 25.07 16 60.8 62 8.7 47.7 16.21 0.638
03:37 1020 30.12 849 25.07 16.1 61 62 9 48.1 16.33 0.643
03:38 1019 30.09 849 25.07 16.2 61.1 61 8.7 47.7 16.44 0.647
03:39 1019 30.09 849 25.07 16.4 61.4 60 8.7 47.6 16.58 0.653
03:40 1019 30.09 849 25.07 16.5 61.6 59 8.5 47.3 16.71 0.658
03:41 1019 30.09 849 25.07 16.5 61.8 60 8.9 48 16.77 0.66
03:42 1019 30.09 849 25.07 16.5 61.7 61 9 48.1 16.8 0.661
03:43 1019 30.09 849 25.07 16.4 61.5 62 9.1 48.5 16.72 0.658
03:44 1019 30.09 849 25.07 16.3 61.3 63 9.2 48.6 16.59 0.653
03:45 1019 30.09 849 25.07 16.2 61.1 63 9.1 48.4 16.52 0.65
03:46 1019 30.09 849 25.07 16.1 61 64 9.3 48.8 16.4 0.646
03:47 1019 30.09 849 25.07 16 60.7 63 9.1 48.4 16.31 0.642
03:48 1019 30.09 849 25.07 15.9 60.6 63 9 48.2 16.25 0.64
03:49 1019 30.09 849 25.07 15.9 60.7 64 9.1 48.5 16.28 0.641
03:50 1019 30.09 849 25.07 15.9 60.6 64 9.1 48.5 16.27 0.641
03:51 1019 30.09 849 25.07 15.9 60.5 64 9.1 48.3 16.22 0.639
03:52 1019 30.09 849 25.07 15.8 60.5 64 9.1 48.5 16.15 0.636
03:53 1019 30.09 849 25.07 15.8 60.4 64 9 48.1 16.13 0.635
03:54 1019 30.09 848 25.04 15.8 60.5 61 8.5 47.3 16.18 0.637
03:55 1019 30.09 848 25.04 16 60.7 62 8.8 47.8 16.31 0.642
03:56 1019 30.09 848 25.04 16 60.7 62 8.7 47.7 16.29 0.641
03:57 1019 30.09 848 25.04 16 60.7 62 8.8 47.8 16.27 0.641
03:58 1019 30.09 848 25.04 15.9 60.6 62 8.7 47.6 16.27 0.641
03:59 1019 30.09 848 25.04 15.9 60.7 62 8.8 47.9 16.23 0.639
04:00 1019 30.09 848 25.04 15.8 60.5 62 8.7 47.6 16.23 0.639
04:01 1019 30.09 848 25.04 15.8 60.5 62 8.7 47.6 16.15 0.636
04:02 1019 30.09 848 25.04 15.8 60.5 62 8.6 47.5 16.2 0.638
04:03 1019 30.09 848 25.04 15.8 60.4 61 8.3 47 16.15 0.636
04:04 1019 30.09 848 25.04 15.9 60.6 61 8.4 47.2 16.25 0.64
04:05 1019 30.09 848 25.04 15.9 60.6 61 8.5 47.3 16.27 0.641
04:06 1019 30.09 848 25.04 15.9 60.5 62 8.7 47.6 16.22 0.639
04:07 1019 30.09 848 25.04 15.8 60.4 62 8.6 47.5 16.17 0.637
04:08 1019 30.09 848 25.04 15.8 60.4 62 8.6 47.5 16.1 0.634
04:09 1019 30.09 848 25.04 15.7 60.2 62 8.6 47.5 16.08 0.633
04:10 1019 30.09 848 25.04 15.7 60.2 63 8.6 47.5 16.01 0.63
04:11 1019 30.09 848 25.04 15.6 60.1 63 8.7 47.7 15.92 0.627
04:12 1019 30.09 848 25.04 15.5 59.9 63 8.7 47.6 15.87 0.625
04:13 1019 30.09 848 25.04 15.5 59.8 64 8.7 47.6 15.8 0.622
04:14 1019 30.09 848 25.04 15.4 59.7 64 8.6 47.5 15.74 0.62
04:15 1019 30.09 848 25.04 15.4 59.7 64 8.6 47.5 15.71 0.619
04:16 1019 30.09 848 25.04 15.3 59.5 64 8.6 47.6 15.6 0.614
04:17 1019 30.09 848 25.04 15.2 59.4 65 8.7 47.6 15.61 0.615
04:18 1019 30.09 848 25.04 15.2 59.4 64 8.5 47.4 15.58 0.613
04:19 1019 30.09 848 25.04 15.2 59.4 64 8.5 47.4 15.56 0.613
04:20 1019 30.09 848 25.04 15.2 59.4 64 8.6 47.5 15.57 0.613
04:21 1019 30.09 848 25.04 15.2 59.3 64 8.5 47.3 15.59 0.614
04:22 1019 30.09 848 25.04 15.2 59.4 64 8.5 47.4 15.56 0.613
04:23 1019 30.09 848 25.04 15.2 59.4 64 8.6 47.5 15.63 0.615
04:24 1019 30.09 848 25.04 15.2 59.4 64 8.5 47.2 15.59 0.614
04:25 1019 30.09 848 25.04 15.3 59.5 64 8.6 47.4 15.63 0.615
04:26 1019 30.09 848 25.04 15.2 59.4 64 8.5 47.4 15.56 0.613
04:27 1019 30.09 848 25.04 15.2 59.3 64 8.5 47.4 15.55 0.612
04:28 1019 30.09 848 25.04 15.2 59.3 65 8.6 47.5 15.52 0.611
04:29 1019 30.09 848 25.04 15.1 59.2 65 8.7 47.6 15.49 0.61
04:30 1019 30.09 848 25.04 15.1 59.2 65 8.6 47.5 15.44 0.608
04:31 1019 30.09 848 25.04 15.1 59.2 64 8.5 47.4 15.48 0.609
04:32 1019 30.09 848 25.04 15.2 59.3 64 8.6 47.5 15.56 0.613
04:33 1019 30.09 848 25.04 15.2 59.4 65 8.7 47.6 15.58 0.613
04:34 1019 30.09 848 25.04 15.2 59.4 64 8.6 47.5 15.56 0.613
04:35 1019 30.09 848 25.04 15.2 59.3 65 8.7 47.7 15.55 0.612
04:36 1019 30.09 848 25.04 15.1 59.1 66 8.8 47.9 15.42 0.607
04:37 1019 30.09 848 25.04 15 58.9 66 8.8 47.9 15.34 0.604
04:38 1019 30.09 848 25.04 14.8 58.7 67 8.9 48 15.25 0.6
04:39 1019 30.09 848 25.04 14.8 58.6 67 8.9 48 15.12 0.595
04:40 1019 30.09 848 25.04 14.7 58.5 67 8.7 47.7 15.12 0.595
04:41 1019 30.09 848 25.04 14.7 58.5 68 8.9 48 15.06 0.593
04:42 1019 30.09 848 25.04 14.6 58.4 67 8.7 47.7 15.01 0.591
04:43 1019 30.09 848 25.04 14.7 58.4 67 8.7 47.7 15.05 0.593
04:44 1019 30.09 848 25.04 14.7 58.5 67 8.7 47.7 15.06 0.593
04:45 1019 30.09 848 25.04 14.8 58.6 67 8.7 47.7 15.1 0.594
04:46 1019 30.09 848 25.04 14.8 58.6 67 8.8 47.8 15.15 0.596
04:47 1019 30.09 848 25.04 14.8 58.6 67 8.9 47.9 15.13 0.596
04:48 1019 30.09 848 25.04 14.7 58.5 68 8.8 47.9 15.07 0.593
04:49 1019 30.09 848 25.04 14.7 58.4 67 8.8 47.8 15.05 0.593
04:50 1019 30.09 848 25.04 14.7 58.5 67 8.8 47.9 15.07 0.593
04:51 1019 30.09 848 25.04 14.8 58.6 67 8.8 47.9 15.11 0.595
04:52 1019 30.09 848 25.04 14.8 58.6 67 8.9 48 15.16 0.597
04:53 1019 30.09 848 25.04 14.8 58.6 67 8.8 47.9 15.15 0.596
04:54 1019 30.09 848 25.04 14.8 58.7 68 9 48.2 15.16 0.597
04:55 1019 30.09 848 25.04 14.8 58.6 69 9.1 48.5 15.11 0.595
04:56 1019 30.09 848 25.04 14.7 58.4 69 9.2 48.6 15.05 0.593
04:57 1019 30.09 848 25.04 14.5 58.1 70 9.2 48.6 14.91 0.587
04:58 1019 30.09 848 25.04 14.4 57.9 71 9.3 48.7 14.8 0.583
04:59 1019 30.09 848 25.04 14.3 57.7 72 9.3 48.8 14.71 0.579
05:00 1019 30.09 848 25.04 14.2 57.5 73 9.4 48.9 14.58 0.574
05:01 1019 30.09 848 25.04 14.1 57.3 73 9.3 48.7 14.47 0.57
05:02 1019 30.09 848 25.04 14 57.2 72 9 48.3 14.45 0.569
05:03 1019 30.09 848 25.04 14.1 57.5 72 9.1 48.4 14.54 0.572
05:04 1019 30.09 848 25.04 14.2 57.5 72 9.2 48.6 14.56 0.573
05:05 1019 30.09 848 25.04 14.1 57.4 73 9.3 48.8 14.51 0.571
05:06 1019 30.09 848 25.04 14 57.3 73 9.4 48.9 14.45 0.569
05:07 1019 30.09 848 25.04 14 57.1 74 9.4 48.9 14.36 0.565
05:08 1019 30.09 848 25.04 13.9 57 74 9.4 48.9 14.26 0.561
05:09 1019 30.09 848 25.04 13.8 56.9 74 9.3 48.7 14.21 0.559
05:10 1019 30.09 848 25.04 13.8 56.9 74 9.3 48.7 14.21 0.559
05:11 1019 30.09 848 25.04 13.9 57 73 9.2 48.6 14.25 0.561
05:12 1019 30.09 848 25.04 13.9 57 73 9.2 48.6 14.27 0.562
05:13 1019 30.09 848 25.04 13.9 57.1 73 9.3 48.7 14.32 0.564
05:14 1019 30.09 848 25.04 13.9 57.1 74 9.3 48.8 14.29 0.563
05:15 1019 30.09 848 25.04 13.9 57 74 9.3 48.8 14.22 0.56
05:16 1019 30.09 848 25.04 13.8 56.9 74 9.3 48.7 14.19 0.559
05:17 1019 30.09 848 25.04 13.8 56.8 74 9.2 48.6 14.13 0.556
05:18 1019 30.09 848 25.04 13.8 56.8 74 9.2 48.5 14.14 0.557
05:19 1019 30.09 848 25.04 13.8 56.8 74 9.2 48.5 14.11 0.556
05:20 1019 30.09 848 25.04 13.7 56.7 73 9 48.2 14.1 0.555
05:21 1019 30.09 848 25.04 13.8 56.8 73 9 48.2 14.12 0.556
05:22 1019 30.09 848 25.04 13.8 56.8 72 8.9 48.1 14.08 0.554
05:23 1019 30.09 848 25.04 13.8 56.8 72 8.9 48 14.11 0.556
05:24 1019 30.09 848 25.04 13.9 56.9 72 9 48.1 14.15 0.557
05:25 1019 30.09 848 25.04 13.8 56.9 73 9 48.3 14.16 0.557
05:26 1019 30.09 848 25.04 13.8 56.8 73 9.1 48.4 14.08 0.554
05:27 1019 30.09 848 25.04 13.6 56.6 74 9.1 48.4 14.04 0.553
05:28 1019 30.09 848 25.04 13.6 56.5 75 9.2 48.6 13.96 0.55
05:29 1019 30.09 848 25.04 13.5 56.4 75 9.2 48.5 13.9 0.547
05:30 1019 30.09 848 25.04 13.5 56.3 75 9.1 48.4 13.88 0.546
05:31 1019 30.09 848 25.04 13.5 56.3 75 9.1 48.4 13.88 0.546
05:32 1019 30.09 848 25.04 13.5 56.2 75 9.1 48.4 13.84 0.545
05:33 1019 30.09 848 25.04 13.5 56.2 75 9.1 48.4 13.81 0.544
05:34 1019 30.09 848 25.04 13.4 56.1 75 9.1 48.4 13.77 0.542
05:35 1019 30.09 848 25.04 13.3 56 76 9.2 48.5 13.73 0.541
05:36 1019 30.09 848 25.04 13.3 55.9 76 9.2 48.5 13.68 0.539
05:37 1019 30.09 848 25.04 13.2 55.8 76 9.1 48.4 13.63 0.537
05:38 1019 30.09 848 25.04 13.2 55.8 76 9.1 48.3 13.62 0.536
05:39 1019 30.09 848 25.04 13.2 55.8 75 9 48.2 13.63 0.537
05:40 1019 30.09 848 25.04 13.3 55.9 75 9 48.2 13.61 0.536
05:41 1019 30.09 848 25.04 13.3 56 75 8.9 48.1 13.66 0.538
05:42 1019 30.09 848 25.04 13.4 56.1 74 8.9 48 13.71 0.54
05:43 1019 30.09 848 25.04 13.5 56.2 74 8.9 48 13.73 0.541
05:44 1019 30.09 848 25.04 13.5 56.3 73 8.8 47.9 13.81 0.544
05:45 1019 30.09 848 25.04 13.6 56.4 73 8.8 47.8 13.88 0.546
05:46 1019 30.09 848 25.04 13.6 56.6 73 8.9 48 13.95 0.549
05:47 1019 30.09 848 25.04 13.6 56.5 73 8.9 48 13.9 0.547
05:48 1019 30.09 848 25.04 13.6 56.4 73 8.9 48 13.9 0.547
05:49 1019 30.09 848 25.04 13.5 56.3 73 8.9 48 13.84 0.545
05:50 1019 30.09 848 25.04 13.5 56.2 73 8.8 47.9 13.79 0.543
05:51 1019 30.09 848 25.04 13.4 56.2 73 8.7 47.7 13.77 0.542
05:52 1019 30.09 848 25.04 13.4 56.2 73 8.7 47.7 13.78 0.543
05:53 1019 30.09 848 25.04 13.4 56.2 73 8.7 47.6 13.79 0.543
05:54 1019 30.09 848 25.04 13.5 56.3 72 8.7 47.6 13.79 0.543
05:55 1019 30.09 848 25.04 13.5 56.3 73 8.7 47.7 13.8 0.543
05:56 1019 30.09 848 25.04 13.5 56.4 72 8.7 47.6 13.83 0.544
05:57 1019 30.09 848 25.04 13.5 56.3 73 8.7 47.7 13.77 0.542
05:58 1019 30.09 848 25.04 13.4 56.1 73 8.7 47.7 13.74 0.541
05:59 1019 30.09 848 25.04 13.3 55.9 73 8.6 47.5 13.61 0.536
06:00 1019 30.09 848 25.04 13.2 55.8 73 8.6 47.5 13.57 0.534
06:01 1019 30.09 848 25.04 13.2 55.8 74 8.6 47.6 13.57 0.534
06:02 1019 30.09 848 25.04 13.2 55.7 74 8.6 47.6 13.55 0.533
06:03 1019 30.09 848 25.04 13.2 55.7 74 8.6 47.6 13.5 0.531
06:04 1019 30.09 848 25.04 13.1 55.7 74 8.6 47.5 13.53 0.533
06:05 1019 30.09 848 25.04 13.2 55.8 74 8.6 47.5 13.53 0.533
06:06 1019 30.09 848 25.04 13.3 55.9 73 8.6 47.4 13.58 0.535
06:07 1019 30.09 848 25.04 13.4 56 72 8.5 47.4 13.7 0.539
06:08 1019 30.09 848 25.04 13.4 56.2 72 8.5 47.4 13.77 0.542
06:09 1019 30.09 848 25.04 13.6 56.4 72 8.6 47.5 13.84 0.545
06:10 1019 30.09 848 25.04 13.6 56.4 72 8.6 47.5 13.88 0.546
06:11 1019 30.09 848 25.04 13.5 56.4 72 8.6 47.5 13.88 0.546
06:12 1019 30.09 848 25.04 13.5 56.3 72 8.6 47.5 13.88 0.546
06:13 1019 30.09 848 25.04 13.5 56.2 72 8.5 47.4 13.82 0.544
06:14 1019 30.09 848 25.04 13.5 56.3 72 8.6 47.4 13.83 0.544
06:15 1019 30.09 848 25.04 13.5 56.2 72 8.6 47.5 13.8 0.543
06:16 1019 30.09 848 25.04 13.3 55.9 74 8.7 47.7 13.63 0.537
06:17 1019 30.09 848 25.04 13 55.5 75 8.7 47.7 13.45 0.53
06:18 1019 30.09 848 25.04 12.7 54.9 77 8.8 47.8 13.17 0.519
06:19 1019 30.09 848 25.04 12.4 54.4 78 8.8 47.9 12.9 0.508
06:20 1019 30.09 848 25.04 12.2 54 79 8.8 47.8 12.72 0.501
06:21 1019 30.09 848 25.04 12.2 53.9 80 8.8 47.8 12.59 0.496
06:22 1019 30.09 848 25.04 12 53.7 80 8.7 47.7 12.49 0.492
06:23 1019 30.09 848 25.04 12 53.5 81 8.7 47.7 12.44 0.49
06:24 1019 30.09 848 25.04 11.9 53.4 81 8.8 47.8 12.38 0.487
06:25 1019 30.09 848 25.04 11.9 53.3 81 8.8 47.8 12.27 0.483
06:26 1019 30.09 848 25.04 11.8 53.3 81 8.8 47.8 12.25 0.482
06:27 1019 30.09 848 25.04 11.8 53.3 82 8.8 47.8 12.24 0.482
06:28 1019 30.09 848 25.04 11.8 53.2 81 8.7 47.7 12.23 0.481
06:29 1019 30.09 848 25.04 11.9 53.4 81 8.7 47.7 12.28 0.483
06:30 1019 30.09 848 25.04 11.9 53.5 81 8.8 47.8 12.3 0.484
06:31 1019 30.09 848 25.04 12 53.6 81 8.8 47.9 12.31 0.485
06:32 1019 30.09 848 25.04 11.9 53.5 81 8.8 47.8 12.32 0.485
06:33 1019 30.09 848 25.04 11.9 53.4 81 8.8 47.8 12.27 0.483
06:34 1019 30.09 848 25.04 11.9 53.3 81 8.8 47.8 12.23 0.481
06:35 1019 30.09 848 25.04 11.8 53.3 81 8.8 47.8 12.21 0.481
06:36 1019 30.09 848 25.04 11.8 53.3 81 8.7 47.7 12.24 0.482
06:37 1019 30.09 848 25.04 11.8 53.3 81 8.8 47.8 12.23 0.481
06:38 1019 30.09 848 25.04 11.8 53.3 82 8.8 47.8 12.21 0.481
06:39 1019 30.09 848 25.04 11.8 53.2 82 8.8 47.9 12.17 0.479
06:40 1019 30.09 848 25.04 11.7 53.1 82 8.8 47.9 12.13 0.478
06:41 1019 30.09 848 25.04 11.7 53 82 8.8 47.8 12.1 0.476
06:42 1019 30.09 848 25.04 11.7 53 82 8.7 47.7 12.09 0.476
06:43 1019 30.09 848 25.04 11.7 53.1 81 8.7 47.6 12.14 0.478
06:44 1019 30.09 848 25.04 11.9 53.4 81 8.7 47.7 12.18 0.48
06:45 1019 30.09 848 25.04 11.9 53.3 81 8.8 47.8 12.19 0.48
06:46 1019 30.09 848 25.04 11.8 53.3 81 8.7 47.7 12.21 0.481
06:47 1019 30.09 848 25.04 11.7 53.1 82 8.8 47.8 12.14 0.478
06:48 1019 30.09 848 25.04 11.7 53 83 8.8 47.8 12.07 0.475
06:49 1019 30.09 848 25.04 11.6 52.9 83 8.8 47.9 12.06 0.475
06:50 1019 30.09 848 25.04 11.6 52.9 83 8.8 47.8 12 0.472
06:51 1019 30.09 848 25.04 11.5 52.8 83 8.8 47.8 11.89 0.468
06:52 1019 30.09 848 25.04 11.5 52.6 84 8.9 47.9 11.84 0.466
06:53 1019 30.09 848 25.04 11.4 52.6 84 8.9 48 11.88 0.468
06:54 1019 30.09 848 25.04 11.5 52.6 84 8.9 48 11.89 0.468
06:55 1019 30.09 848 25.04 11.5 52.8 83 8.8 47.9 11.95 0.47
06:56 1019 30.09 848 25.04 11.6 52.9 83 8.9 48 12.01 0.473
06:57 1019 30.09 848 25.04 11.7 53 83 9 48.1 12 0.472
06:58 1019 30.09 848 25.04 11.7 53.1 82 8.8 47.9 12.1 0.476
06:59 1019 30.09 848 25.04 11.9 53.4 82 8.9 48.1 12.24 0.482
07:00 1019 30.09 848 25.04 12 53.6 82 9 48.1 12.33 0.485
07:01 1019 30.09 848 25.04 12.1 53.9 82 9.1 48.4 12.4 0.488
07:02 1019 30.09 848 25.04 12.2 53.9 81 9 48.3 12.47 0.491
07:03 1019 30.09 848 25.04 12.3 54.1 81 9.1 48.4 12.55 0.494
07:04 1019 30.09 848 25.04 12.4 54.3 81 9.2 48.5 12.68 0.499
07:05 1019 30.09 848 25.04 12.5 54.6 79 9.1 48.3 12.83 0.505
07:06 1019 30.09 848 25.04 12.8 55 79 9.2 48.6 13.04 0.513
07:07 1019 30.09 848 25.04 13 55.3 78 9.3 48.8 13.22 0.52
07:08 1019 30.09 848 25.04 13.2 55.7 77 9.3 48.8 13.37 0.526
07:09 1019 30.09 848 25.04 13.3 55.9 77 9.3 48.8 13.5 0.531
07:10 1019 30.09 848 25.04 13.4 56.2 75 9.1 48.4 13.64 0.537
07:11 1019 30.09 848 25.04 13.6 56.5 75 9.3 48.8 13.79 0.543
07:12 1019 30.09 848 25.04 13.7 56.7 74 9.3 48.7 13.96 0.55
07:13 1019 30.09 848 25.04 13.9 56.9 76 9.7 49.4 14.1 0.555
07:14 1019 30.09 848 25.04 13.9 57 75 9.5 49.1 14.2 0.559
07:15 1019 30.09 848 25.04 14 57.2 73 9.3 48.8 14.32 0.564
07:16 1019 30.09 848 25.04 14.1 57.3 73 9.3 48.7 14.44 0.569
07:17 1019 30.09 848 25.04 14.2 57.6 73 9.4 49 14.55 0.573
07:18 1019 30.09 848 25.04 14.3 57.8 73 9.5 49.2 14.67 0.578
07:19 1019 30.09 848 25.04 14.4 58 71 9.3 48.8 14.78 0.582
07:20 1019 30.09 848 25.04 14.5 58.1 70 9.2 48.6 14.84 0.584
07:21 1019 30.09 848 25.04 14.6 58.3 70 9.3 48.8 14.9 0.587
07:22 1019 30.09 848 25.04 14.7 58.4 69 9.2 48.6 14.99 0.59
07:23 1019 30.09 848 25.04 14.8 58.6 69 9.3 48.7 15.11 0.595
07:24 1019 30.09 848 25.04 14.9 58.8 69 9.3 48.8 15.23 0.6
07:25 1019 30.09 848 25.04 15 58.9 69 9.3 48.7 15.27 0.601
07:26 1019 30.09 848 25.04 15 59 68 9.2 48.6 15.36 0.605
07:27 1019 30.09 848 25.04 15 59.1 68 9.3 48.7 15.4 0.606
07:28 1019 30.09 848 25.04 15.1 59.1 67 9.1 48.4 15.39 0.606
07:29 1019 30.09 848 25.04 15.1 59.2 68 9.3 48.7 15.44 0.608
07:30 1019 30.09 848 25.04 15.2 59.3 68 9.4 49 15.52 0.611
07:31 1019 30.09 848 25.04 15.3 59.5 68 9.5 49.2 15.59 0.614
07:32 1019 30.09 848 25.04 15.4 59.7 69 9.7 49.4 15.79 0.622
07:33 1019 30.09 848 25.04 15.5 59.9 67 9.5 49.1 15.86 0.624
07:34 1019 30.09 848 25.04 15.6 60 66 9.2 48.6 15.91 0.626
07:35 1019 30.09 848 25.04 15.6 60.2 67 9.6 49.3 15.97 0.629
07:36 1019 30.09 848 25.04 15.7 60.3 66 9.5 49.1 16.01 0.63
07:37 1019 30.09 848 25.04 15.7 60.3 65 9.2 48.5 16.03 0.631
07:38 1019 30.09 848 25.04 15.8 60.4 67 9.6 49.3 16.09 0.633
07:39 1019 30.09 848 25.04 15.8 60.4 65 9.2 48.5 16.12 0.635
07:40 1019 30.09 848 25.04 15.9 60.5 66 9.6 49.2 16.15 0.636
07:41 1019 30.09 848 25.04 16 60.7 65 9.4 48.8 16.24 0.639
07:42 1019 30.09 848 25.04 16 60.8 65 9.6 49.3 16.3 0.642
07:43 1019 30.09 848 25.04 16.1 61 63 9.1 48.4 16.39 0.645
07:44 1019 30.09 848 25.04 16.1 61 64 9.3 48.7 16.3 0.642
07:45 1019 30.09 848 25.04 16.1 61 64 9.3 48.8 16.31 0.642
07:46 1019 30.09 848 25.04 16.2 61.1 64 9.3 48.8 16.41 0.646
07:47 1019 30.09 848 25.04 16.2 61.1 64 9.5 49.1 16.54 0.651
07:48 1019 30.09 848 25.04 16.2 61.1 63 9.2 48.6 16.48 0.649
07:49 1019 30.09 848 25.04 16.2 61.1 63 9.2 48.6 16.5 0.65
07:50 1019 30.09 848 25.04 16.2 61.2 63 9.2 48.5 16.51 0.65
07:51 1019 30.09 848 25.04 16.2 61.1 65 9.7 49.5 16.43 0.647
07:52 1019 30.09 848 25.04 16.2 61.1 62 9 48.2 16.49 0.649
07:53 1019 30.09 848 25.04 16.2 61.1 64 9.4 49 16.46 0.648
07:54 1019 30.09 848 25.04 16.2 61.1 62 9 48.3 16.47 0.648
07:55 1019 30.09 848 25.04 16.2 61.2 63 9.2 48.5 16.52 0.65
07:56 1019 30.09 848 25.04 16.3 61.3 62 9 48.2 16.55 0.652
07:57 1019 30.09 848 25.04 16.4 61.5 62 9.2 48.5 16.57 0.652
07:58 1019 30.09 848 25.04 16.4 61.4 61 8.9 48 16.6 0.654
07:59 1019 30.09 848 25.04 16.3 61.4 63 9.2 48.6 16.55 0.652
08:00 1019 30.09 848 25.04 16.3 61.3 60 8.7 47.6 16.63 0.655
08:01 1019 30.09 848 25.04 16.3 61.3 61 8.9 47.9 16.57 0.652
08:02 1019 30.09 848 25.04 16.4 61.4 60 8.7 47.7 16.67 0.656
08:03 1019 30.09 848 25.04 16.5 61.6 63 9.6 49.2 16.76 0.66
08:04 1019 30.09 848 25.04 16.5 61.8 60 8.9 48 16.89 0.665
08:05 1019 30.09 848 25.04 16.6 61.9 60 9 48.1 16.86 0.664
08:06 1019 30.09 848 25.04 16.5 61.8 61 9 48.2 16.82 0.662
08:07 1019 30.09 848 25.04 16.6 61.8 60 8.9 48 16.9 0.665
08:08 1019 30.09 848 25.04 16.6 61.8 60 8.8 47.9 16.85 0.663
08:09 1019 30.09 848 25.04 16.6 61.8 60 8.8 47.8 16.86 0.664
08:10 1019 30.09 848 25.04 16.6 61.9 60 8.8 47.8 16.86 0.664
08:11 1019 30.09 848 25.04 16.6 61.8 60 8.9 48 16.83 0.663
08:12 1019 30.09 848 25.04 16.5 61.8 61 9.1 48.3 16.82 0.662
08:13 1019 30.09 848 25.04 16.6 61.9 60 8.9 47.9 16.94 0.667
08:14 1019 30.09 848 25.04 16.7 62 59 8.6 47.5 16.9 0.665
08:15 1019 30.09 848 25.04 16.7 62 60 8.9 48 16.91 0.666
08:16 1019 30.09 848 25.04 16.8 62.2 59 8.8 47.8 17.06 0.672
08:17 1019 30.09 848 25.04 16.9 62.3 59 8.8 47.9 17.11 0.674
08:18 1019 30.09 848 25.04 17 62.5 60 9.3 48.8 17.21 0.678
08:19 1019 30.09 848 25.04 17 62.6 58 8.8 47.9 17.26 0.68
08:20 1019 30.09 848 25.04 17 62.6 59 9 48.2 17.25 0.679
08:21 1019 30.09 848 25.04 17 62.6 58 8.8 47.9 17.37 0.684
08:22 1018 30.06 848 25.04 17.1 62.8 58 8.9 48.1 17.39 0.685
08:23 1018 30.06 848 25.04 17.2 62.9 57 8.6 47.6 17.52 0.69
08:24 1018 30.06 848 25.04 17.2 63 56 8.5 47.2 17.52 0.69
08:25 1018 30.06 848 25.04 17.2 63 58 9 48.2 17.47 0.688
08:26 1018 30.06 848 25.04 17.2 63 58 9 48.2 17.46 0.687
08:27 1018 30.06 848 25.04 17.2 63 57 8.8 47.8 17.48 0.688
08:28 1018 30.06 848 25.04 17.2 63 56 8.6 47.5 17.53 0.69
08:29 1018 30.06 848 25.04 17.3 63.2 56 8.7 47.6 17.58 0.692
08:30 1018 30.06 848 25.04 17.3 63.2 57 8.8 47.8 17.57 0.692
08:31 1018 30.06 848 25.04 17.3 63.1 57 8.8 47.9 17.53 0.69
08:32 1018 30.06 848 25.04 17.4 63.3 58 9.2 48.6 17.68 0.696
08:33 1018 30.06 848 25.04 17.6 63.7 56 8.9 48 17.88 0.704
08:34 1018 30.06 848 25.04 17.7 63.8 56 8.8 47.9 17.97 0.707
08:35 1018 30.06 848 25.04 17.8 64 55 8.9 48 18.05 0.711
08:36 1018 30.06 848 25.04 17.8 64.1 57 9.4 48.9 18.07 0.711
08:37 1018 30.06 848 25.04 17.9 64.3 56 9 48.3 18.2 0.717
08:38 1018 30.06 848 25.04 18 64.5 54 8.7 47.6 18.31 0.721
08:39 1018 30.06 848 25.04 18.1 64.5 53 8.6 47.5 18.27 0.719
08:40 1018 30.06 848 25.04 18.1 64.6 57 9.4 49 18.33 0.722
08:41 1018 30.06 848 25.04 18.2 64.7 54 8.8 47.8 18.43 0.726
08:42 1018 30.06 848 25.04 18.2 64.8 54 9 48.2 18.41 0.725
08:43 1018 30.06 848 25.04 18.2 64.8 54 8.9 48.1 18.43 0.726
08:44 1018 30.06 848 25.04 18.3 64.9 52 8.5 47.2 18.43 0.726
08:45 1018 30.06 848 25.04 18.3 65 52 8.5 47.3 18.47 0.727
08:46 1018 30.06 848 25.04 18.4 65.1 55 9.3 48.7 18.72 0.737
08:47 1018 30.06 847 25.01 18.6 65.4 56 9.7 49.5 19.01 0.748
08:48 1018 30.06 847 25.01 18.9 66 53 9.2 48.5 19.24 0.757
08:49 1018 30.06 847 25.01 19 66.2 54 9.6 49.3 19.31 0.76
08:50 1018 30.06 847 25.01 19.1 66.3 52 9.2 48.6 19.24 0.757
08:51 1018 30.06 847 25.01 19.1 66.4 51 9 48.2 19.26 0.758
08:52 1018 30.06 847 25.01 19.2 66.6 52 9.3 48.7 19.22 0.757
08:53 1018 30.06 847 25.01 19.2 66.5 51 9 48.2 19.23 0.757
08:54 1018 30.06 847 25.01 19.1 66.3 52 9.2 48.5 19.14 0.754
08:55 1018 30.06 847 25.01 18.9 66 52 9.1 48.4 19.17 0.755
08:56 1018 30.06 847 25.01 18.7 65.7 53 9.2 48.5 19.12 0.753
08:57 1018 30.06 847 25.01 18.7 65.6 55 9.6 49.3 18.99 0.748
08:58 1018 30.06 847 25.01 18.7 65.6 53 9 48.2 18.96 0.746
08:59 1018 30.06 847 25.01 18.6 65.5 55 9.4 48.9 18.99 0.748
09:00 1018 30.06 847 25.01 18.7 65.7 52 8.8 47.9 19.17 0.755
09:01 1018 30.06 847 25.01 18.8 65.9 53 9.1 48.3 19.13 0.753
09:02 1018 30.06 847 25.01 18.7 65.7 52 8.8 47.8 19.06 0.75
09:03 1018 30.06 847 25.01 18.7 65.7 54 9.4 49 19.02 0.749
09:04 1018 30.06 847 25.01 18.7 65.7 53 9.1 48.3 19.13 0.753
09:05 1018 30.06 847 25.01 18.8 65.8 55 9.6 49.3 19.27 0.759
09:06 1018 30.06 847 25.01 18.9 66 52 8.9 48 19.35 0.762
09:07 1018 30.06 847 25.01 18.9 65.9 53 9.2 48.5 19.27 0.759
09:08 1018 30.06 847 25.01 18.8 65.9 52 8.7 47.7 19.28 0.759
09:09 1018 30.06 847 25.01 18.8 65.8 53 9.2 48.6 19.14 0.754
09:10 1018 30.06 847 25.01 18.7 65.7 52 8.9 48 19.17 0.755
09:11 1018 30.06 847 25.01 18.7 65.6 53 9.1 48.4 19.25 0.758
09:12 1018 30.06 847 25.01 18.7 65.7 53 9 48.2 19.11 0.752
09:13 1018 30.06 847 25.01 18.7 65.7 55 9.6 49.2 19.07 0.751
09:14 1018 30.06 847 25.01 18.8 65.9 54 9.5 49.2 19.17 0.755
09:15 1018 30.06 847 25.01 19 66.1 53 9.3 48.7 19.33 0.761
09:16 1018 30.06 847 25.01 19 66.2 51 8.9 47.9 19.35 0.762
09:17 1018 30.06 847 25.01 18.9 66.1 52 9 48.2 19.3 0.76
09:18 1018 30.06 847 25.01 18.9 66 55 9.6 49.4 19.19 0.756
09:19 1018 30.06 847 25.01 18.9 66.1 53 9.1 48.4 19.21 0.756
09:20 1018 30.06 847 25.01 18.9 66 53 9.2 48.6 19.17 0.755
09:21 1018 30.06 847 25.01 18.9 66.1 54 9.4 48.9 19.24 0.757
09:22 1018 30.06 847 25.01 19 66.1 52 9.1 48.4 19.21 0.756
09:23 1018 30.06 847 25.01 19 66.1 56 10 50.1 19.29 0.759
09:24 1018 30.06 847 25.01 19 66.1 54 9.5 49.1 19.37 0.763
09:25 1018 30.06 847 25.01 19 66.2 54 9.7 49.4 19.35 0.762
09:26 1018 30.06 847 25.01 19 66.2 56 10.1 50.1 19.41 0.764
09:27 1018 30.06 847 25.01 19.2 66.6 55 10.1 50.1 19.51 0.768
09:28 1018 30.06 847 25.01 19.3 66.7 51 8.9 48.1 19.64 0.773
09:29 1018 30.06 847 25.01 19.2 66.6 53 9.6 49.2 19.52 0.769
09:30 1018 30.06 847 25.01 19.2 66.6 53 9.6 49.3 19.52 0.769
09:31 1018 30.06 847 25.01 19.3 66.7 54 9.8 49.6 19.54 0.769
09:32 1018 30.06 847 25.01 19.4 66.8 52 9.3 48.7 19.7 0.776
09:33 1018 30.06 847 25.01 19.4 66.8 55 10.2 50.3 19.72 0.776
09:34 1018 30.06 847 25.01 19.5 67.1 53 9.7 49.5 19.89 0.783
09:35 1018 30.06 847 25.01 19.5 67.1 52 9.5 49.2 19.71 0.776
09:36 1018 30.06 847 25.01 19.3 66.7 55 10.2 50.4 19.55 0.77
09:37 1018 30.06 847 25.01 19.3 66.8 54 10 50 19.61 0.772
09:38 1018 30.06 847 25.01 19.3 66.8 54 10 50 19.63 0.773
09:39 1018 30.06 847 25.01 19.5 67 52 9.3 48.8 19.74 0.777
09:40 1018 30.06 847 25.01 19.6 67.2 53 9.8 49.6 19.78 0.779
09:41 1018 30.06 847 25.01 19.6 67.3 55 10.5 50.9 19.89 0.783
09:42 1018 30.06 847 25.01 19.6 67.4 53 9.9 49.9 19.97 0.786
09:43 1018 30.06 847 25.01 19.5 67.1 53 9.7 49.5 19.91 0.784
09:44 1018 30.06 847 25.01 19.4 66.9 51 9.3 48.7 19.93 0.785
09:45 1018 30.06 847 25.01 19.4 66.9 53 9.6 49.3 19.81 0.78
09:46 1018 30.06 847 25.01 19.5 67 53 9.7 49.5 19.91 0.784
09:47 1017 30.03 847 25.01 19.6 67.3 53 9.8 49.7 20.08 0.791
09:48 1017 30.03 847 25.01 19.6 67.4 51 9.3 48.7 20.18 0.794
09:49 1017 30.03 847 25.01 19.7 67.4 53 9.9 49.8 20.19 0.795
09:50 1017 30.03 847 25.01 19.7 67.5 53 10 49.9 20.35 0.801
09:51 1017 30.03 847 25.01 19.9 67.8 50 9.4 49 20.45 0.805
09:52 1017 30.03 847 25.01 19.9 67.8 52 9.9 49.9 20.5 0.807
09:53 1017 30.03 847 25.01 19.9 67.8 50 9.3 48.7 20.51 0.807
09:54 1017 30.03 847 25.01 19.8 67.6 52 9.8 49.7 20.49 0.807
09:55 1017 30.03 846 24.98 19.8 67.6 53 10 50 20.5 0.807
09:56 1017 30.03 846 24.98 19.9 67.8 51 9.5 49.1 20.62 0.812
09:57 1017 30.03 846 24.98 19.9 67.7 53 10.1 50.1 20.55 0.809
09:58 1017 30.03 846 24.98 19.9 67.9 51 9.5 49.2 20.52 0.808
09:59 1017 30.03 846 24.98 19.9 67.9 51 9.5 49.2 20.51 0.807
10:00 1017 30.03 846 24.98 19.8 67.7 50 9.3 48.7 20.41 0.804
10:01 1017 30.03 846 24.98 19.8 67.7 51 9.4 49 20.46 0.806
10:02 1017 30.03 846 24.98 19.9 67.9 52 9.8 49.7 20.5 0.807
10:03 1017 30.03 846 24.98 20 68 52 10 49.9 20.63 0.812
10:04 1017 30.03 846 24.98 20.1 68.1 51 9.7 49.5 20.66 0.813
10:05 1017 30.03 846 24.98 20.1 68.1 51 9.8 49.7 20.69 0.815
10:06 1017 30.03 846 24.98 20.1 68.2 51 9.9 49.9 20.73 0.816
10:07 1017 30.03 846 24.98 20.2 68.4 52 10.3 50.5 20.88 0.822
10:08 1017 30.03 846 24.98 20.4 68.7 50 9.9 49.8 21.07 0.83
10:09 1017 30.03 846 24.98 20.6 69 51 10.2 50.3 21.18 0.834
10:10 1017 30.03 846 24.98 20.7 69.3 49 9.8 49.6 21.35 0.841
10:11 1017 30.03 846 24.98 20.7 69.3 50 10.1 50.2 21.32 0.839
10:12 1017 30.03 846 24.98 20.7 69.2 53 11 51.9 21.33 0.84
10:13 1017 30.03 846 24.98 20.8 69.4 49 9.9 49.8 21.43 0.844
10:14 1017 30.03 846 24.98 20.8 69.5 51 10.4 50.8 21.48 0.846
10:15 1017 30.03 846 24.98 20.9 69.7 49 10.1 50.2 21.57 0.849
10:16 1017 30.03 846 24.98 21 69.8 48 9.8 49.7 21.49 0.846
10:17 1017 30.03 846 24.98 21 69.7 49 10 50 21.51 0.847
10:18 1017 30.03 846 24.98 21.1 70 49 10.1 50.1 21.68 0.854
10:19 1017 30.03 846 24.98 21.3 70.3 50 10.6 51 21.88 0.861
10:20 1017 30.03 846 24.98 21.5 70.7 48 10.1 50.2 22.04 0.868
10:21 1017 30.03 846 24.98 21.5 70.7 46 9.5 49.1 22.14 0.872
10:22 1017 30.03 846 24.98 21.5 70.7 50 10.8 51.5 22.13 0.871
10:23 1017 30.03 846 24.98 21.5 70.6 48 10.2 50.3 22.18 0.873
10:24 1017 30.03 846 24.98 21.5 70.6 48 10.1 50.1 22.13 0.871
10:25 1017 30.03 846 24.98 21.4 70.6 48 10 49.9 21.94 0.864
10:26 1017 30.03 846 24.98 21.5 70.7 47 9.8 49.7 21.94 0.864
10:27 1017 30.03 846 24.98 21.4 70.6 46 9.6 49.4 21.94 0.864
10:28 1017 30.03 846 24.98 21.4 70.6 49 10.4 50.7 22 0.866
10:29 1017 30.03 846 24.98 21.6 70.8 47 10.1 50.1 22 0.866
10:30 1017 30.03 846 24.98 21.6 70.9 47 9.9 49.8 22.04 0.868
10:31 1017 30.03 846 24.98 21.7 71 47 10.2 50.3 22.14 0.872
10:32 1017 30.03 846 24.98 21.9 71.3 42 8.6 47.4 22.37 0.881
10:33 1017 30.03 846 24.98 22.1 71.8 45 9.9 49.8 22.6 0.89
10:34 1017 30.03 846 24.98 22.2 72 43 9.1 48.4 22.6 0.89
10:35 1017 30.03 846 24.98 22.4 72.2 43 9.3 48.7 22.65 0.892
10:36 1017 30.03 846 24.98 22.4 72.3 45 9.9 49.8 22.74 0.895
10:37 1017 30.03 846 24.98 22.6 72.7 45 10.2 50.3 22.95 0.904
10:38 1016 30 846 24.98 22.6 72.7 45 10.2 50.4 22.87 0.9
10:39 1016 30 846 24.98 22.7 72.8 50 11.8 53.2 22.96 0.904
10:40 1016 30 846 24.98 22.9 73.2 45 10.5 50.9 23.19 0.913
10:41 1016 30 846 24.98 22.9 73.3 45 10.7 51.3 23.17 0.912
10:42 1016 30 846 24.98 23 73.4 43 10 50.1 23.17 0.912
10:43 1016 30 846 24.98 22.9 73.2 42 9.4 48.9 23.08 0.909
10:44 1016 30 846 24.98 22.9 73.2 42 9.5 49.1 23.11 0.91
10:45 1016 30 846 24.98 22.9 73.2 40 8.8 47.8 23.17 0.912
10:46 1016 30 846 24.98 23 73.4 42 9.7 49.5 23.21 0.914
10:47 1016 30 846 24.98 22.9 73.2 41 9.2 48.5 23.03 0.907
10:48 1016 30 845 24.95 22.8 73.1 47 10.9 51.7 23.04 0.907
10:49 1016 30 845 24.95 22.9 73.3 47 11.2 52.1 23.21 0.914
10:50 1016 30 845 24.95 22.9 73.2 49 11.8 53.2 23.18 0.913
10:51 1016 30 845 24.95 23 73.3 44 10.2 50.3 23.24 0.915
10:52 1016 30 845 24.95 22.8 73.1 49 11.6 52.9 23.17 0.912
10:53 1016 30 846 24.98 22.9 73.2 46 10.9 51.6 23.19 0.913
10:54 1016 30 845 24.95 23 73.4 43 10.1 50.2 23.22 0.914
10:55 1016 30 846 24.98 23 73.4 42 9.6 49.3 23.17 0.912
10:56 1016 30 846 24.98 22.9 73.3 44 10.2 50.4 23.06 0.908
10:57 1016 30 845 24.95 23 73.3 47 11.2 52.1 23.13 0.911
10:58 1016 30 845 24.95 23 73.4 47 11.4 52.5 23.15 0.911
10:59 1016 30 846 24.98 23 73.4 50 12 53.7 23.21 0.914
11:00 1016 30 845 24.95 23 73.4 46 11 51.8 23.23 0.915
11:01 1016 30 845 24.95 23 73.4 46 11 51.9 23.18 0.913
11:02 1016 30 845 24.95 22.9 73.2 51 12.4 54.3 23.14 0.911
11:03 1016 30 845 24.95 22.9 73.1 49 11.6 52.9 23.15 0.911
11:04 1016 30 845 24.95 22.9 73.3 46 10.8 51.4 23.16 0.912
11:05 1016 30 845 24.95 22.9 73.3 45 10.5 51 23.15 0.911
11:06 1016 30 845 24.95 22.8 73 49 11.8 53.2 23 0.906
11:07 1016 30 845 24.95 22.7 72.8 47 10.9 51.7 22.97 0.904
11:08 1016 30 845 24.95 22.6 72.7 49 11.6 52.9 22.9 0.902
11:09 1016 30 845 24.95 22.5 72.5 48 11.2 52.2 22.81 0.898
11:10 1016 30 845 24.95 22.4 72.4 49 11.4 52.5 22.77 0.896
11:11 1016 30 845 24.95 22.5 72.5 53 12.5 54.6 22.86 0.9
11:12 1016 30 845 24.95 22.7 72.8 50 11.8 53.3 23 0.906
11:13 1016 30 845 24.95 22.6 72.7 50 11.8 53.3 22.89 0.901
11:14 1016 30 845 24.95 22.5 72.5 47 10.7 51.3 22.74 0.895
11:15 1016 30 845 24.95 22.4 72.3 49 11.5 52.6 22.7 0.894
11:16 1016 30 845 24.95 22.5 72.5 50 11.6 52.8 22.73 0.895
11:17 1016 30 845 24.95 22.6 72.6 50 11.8 53.3 22.8 0.898
11:18 1016 30 845 24.95 22.8 73 47 11 51.8 22.97 0.904
11:19 1016 30 845 24.95 22.8 73 49 11.6 52.9 22.89 0.901
11:20 1016 30 845 24.95 22.7 72.9 48 11.4 52.6 22.86 0.9
11:21 1016 30 845 24.95 22.7 72.9 46 10.7 51.3 22.92 0.902
11:22 1016 30 845 24.95 22.6 72.7 49 11.4 52.6 22.89 0.901
11:23 1016 30 845 24.95 22.7 72.8 51 12.1 53.8 23.04 0.907
11:24 1016 30 845 24.95 22.9 73.2 46 10.8 51.4 23.21 0.914
11:25 1016 30 845 24.95 22.9 73.1 46 10.9 51.6 23.15 0.911
11:26 1016 30 845 24.95 22.7 72.9 50 11.9 53.4 23.07 0.908
11:27 1016 30 845 24.95 22.9 73.1 48 11.3 52.3 23.17 0.912
11:28 1016 30 845 24.95 22.9 73.2 52 12.5 54.6 23.1 0.909
11:29 1016 30 845 24.95 23 73.3 45 10.7 51.3 23.23 0.915
11:30 1016 30 845 24.95 23.1 73.6 47 11.2 52.1 23.27 0.916
11:31 1016 30 845 24.95 23.2 73.8 48 11.7 53 23.34 0.919
11:32 1016 30 845 24.95 23.3 74 47 11.5 52.8 23.48 0.924
11:33 1016 30 845 24.95 23.3 74 46 11.1 52 23.49 0.925
11:34 1016 30 845 24.95 23.4 74 47 11.5 52.7 23.41 0.922
11:35 1016 30 845 24.95 23.3 74 50 12.4 54.3 23.39 0.921
11:36 1016 30 845 24.95 23.5 74.2 48 12.1 53.8 23.59 0.929
11:37 1016 30 845 24.95 23.7 74.7 48 12.4 54.3 23.83 0.938
11:38 1016 30 845 24.95 23.7 74.6 46 11.5 52.7 23.75 0.935
11:39 1016 30 845 24.95 23.4 74 48 12 53.7 23.56 0.928
11:40 1016 30 845 24.95 23.3 73.9 46 11.2 52.2 23.48 0.924
11:41 1016 30 845 24.95 23.4 74 50 12.5 54.5 23.49 0.925
11:42 1016 30 845 24.95 23.5 74.3 46 11.5 52.7 23.68 0.932
11:43 1016 30 845 24.95 23.5 74.3 47 11.7 53.1 23.7 0.933
11:44 1016 30 845 24.95 23.5 74.4 48 12.1 53.8 23.76 0.935
11:45 1016 30 845 24.95 23.7 74.6 47 11.9 53.5 23.81 0.937
11:46 1016 30 845 24.95 23.8 74.8 46 11.6 52.9 23.98 0.944
11:47 1016 30 845 24.95 24 75.1 47 12.1 53.7 24.13 0.95
11:48 1016 30 845 24.95 24.1 75.3 44 11.4 52.6 24.15 0.951
11:49 1016 30 845 24.95 24 75.2 45 11.5 52.7 24.11 0.949
11:50 1016 30 845 24.95 24 75.2 43 11 51.8 24.17 0.952
11:51 1016 30 845 24.95 24 75.2 44 11.3 52.3 24.18 0.952
11:52 1016 30 845 24.95 23.9 74.9 47 12.1 53.8 24.12 0.95
11:53 1016 30 845 24.95 23.8 74.8 45 11.4 52.6 24.02 0.946
11:54 1016 30 845 24.95 23.8 74.8 43 10.6 51.1 24.03 0.946
11:55 1016 30 845 24.95 23.8 74.8 44 11 51.9 23.95 0.943
11:56 1016 30 845 24.95 23.8 74.8 45 11.3 52.4 23.97 0.944
11:57 1016 30 845 24.95 23.9 74.9 43 10.5 51 24.09 0.948
11:58 1016 30 845 24.95 24 75.2 43 10.8 51.4 24.09 0.948
11:59 1016 30 845 24.95 24.1 75.3 42 10.7 51.2 24.24 0.954
12:00 1016 30 845 24.95 24.2 75.5 43 10.9 51.7 24.35 0.959
12:01 1016 30 845 24.95 24.2 75.6 47 12.3 54.2 24.38 0.96
12:02 1016 30 845 24.95 24.2 75.6 45 11.7 53.1 24.47 0.963
12:03 1016 30 845 24.95 24.3 75.8 42 10.7 51.3 24.62 0.969
12:04 1016 30 845 24.95 24.3 75.8 45 11.8 53.3 24.58 0.968
12:05 1016 30 845 24.95 24.3 75.8 45 11.8 53.2 24.59 0.968
12:06 1016 30 845 24.95 24.5 76 40 10.3 50.6 24.74 0.974
12:07 1016 30 845 24.95 24.6 76.3 43 11.3 52.3 24.82 0.977
12:08 1015 29.97 845 24.95 24.8 76.6 39 10.2 50.4 24.99 0.984
12:09 1015 29.97 845 24.95 24.8 76.6 43 11.7 53 24.89 0.98
12:10 1015 29.97 845 24.95 24.7 76.4 40 10.4 50.7 24.84 0.978
12:11 1015 29.97 845 24.95 24.5 76.1 41 10.7 51.3 24.63 0.97
12:12 1015 29.97 845 24.95 24.5 76.2 42 10.9 51.6 24.76 0.975
12:13 1015 29.97 845 24.95 24.7 76.4 40 10.4 50.7 24.99 0.984
12:14 1015 29.97 845 24.95 24.9 76.8 45 12.3 54.2 25.16 0.991
12:15 1015 29.97 845 24.95 25 77 40 10.6 51 25.26 0.994
12:16 1015 29.97 845 24.95 25.1 77.1 40 10.6 51.1 25.19 0.992
12:17 1015 29.97 845 24.95 25 76.9 39 10.2 50.4 25.09 0.988
12:18 1015 29.97 845 24.95 24.8 76.7 42 11.1 52 24.92 0.981
12:19 1015 29.97 845 24.95 24.8 76.6 40 10.4 50.8 24.9 0.98
12:20 1015 29.97 845 24.95 24.7 76.5 42 11.3 52.3 24.87 0.979
12:21 1015 29.97 845 24.95 24.7 76.4 42 11.1 52.1 24.8 0.976
12:22 1015 29.97 845 24.95 24.6 76.3 46 12.3 54.1 24.8 0.976
12:23 1015 29.97 845 24.95 24.6 76.3 40 10.3 50.5 24.8 0.976
12:24 1015 29.97 845 24.95 24.6 76.3 41 10.7 51.2 24.83 0.978
12:25 1015 29.97 845 24.95 24.7 76.4 44 11.8 53.2 24.97 0.983
12:26 1015 29.97 845 24.95 24.9 76.9 39 10.1 50.2 25.27 0.995
12:27 1015 29.97 845 24.95 25 76.9 40 10.8 51.4 25.17 0.991
12:28 1015 29.97 845 24.95 25 76.9 42 11.4 52.6 25.19 0.992
12:29 1015 29.97 845 24.95 25 76.9 40 10.8 51.5 25.08 0.987
12:30 1015 29.97 845 24.95 24.8 76.7 41 10.7 51.3 24.92 0.981
12:31 1015 29.97 845 24.95 24.7 76.5 43 11.4 52.5 24.92 0.981
12:32 1015 29.97 845 24.95 24.7 76.5 42 11.2 52.2 25 0.984
12:33 1015 29.97 845 24.95 24.8 76.7 43 11.6 52.8 25.06 0.987
12:34 1015 29.97 845 24.95 24.9 76.8 42 11.3 52.3 25.09 0.988
12:35 1015 29.97 844 24.92 25 76.9 42 11.5 52.7 25.25 0.994
12:36 1015 29.97 844 24.92 25.3 77.5 40 10.9 51.5 25.49 1.004
12:37 1015 29.97 844 24.92 25.3 77.5 46 12.9 55.3 25.41 1
12:38 1015 29.97 844 24.92 25.2 77.4 37 9.8 49.6 25.39 1
12:39 1015 29.97 844 24.92 25.1 77.1 41 11.1 52.1 25.26 0.994
12:40 1015 29.97 844 24.92 25.1 77.1 37 9.8 49.6 25.26 0.994
12:41 1015 29.97 844 24.92 25 77 38 9.9 49.8 25.19 0.992
12:42 1015 29.97 844 24.92 25.1 77.1 39 10.4 50.6 25.28 0.995
12:43 1015 29.97 844 24.92 25.3 77.5 43 11.9 53.4 25.53 1.005
12:44 1015 29.97 844 24.92 25.5 77.9 40 11.2 52.2 25.82 1.017
12:45 1015 29.97 844 24.92 25.7 78.2 37 10 49.9 25.95 1.022
12:46 1015 29.97 844 24.92 25.6 78 38 10.3 50.6 25.65 1.01
12:47 1015 29.97 844 24.92 25.2 77.3 39 10.3 50.6 25.3 0.996
12:48 1015 29.97 844 24.92 25 77 39 10.2 50.3 25.22 0.993
12:49 1015 29.97 844 24.92 25.2 77.3 41 11.3 52.3 25.49 1.004
12:50 1015 29.97 844 24.92 25.4 77.8 40 11.1 52 25.74 1.013
12:51 1015 29.97 844 24.92 25.6 78.1 37 10 50 25.84 1.017
12:52 1015 29.97 844 24.92 25.6 78.1 40 11.1 51.9 25.79 1.015
12:53 1015 29.97 844 24.92 25.6 78 37 10.1 50.2 25.7 1.012
12:54 1015 29.97 844 24.92 25.7 78.2 36 9.9 49.8 25.77 1.015
12:55 1015 29.97 844 24.92 25.6 78 39 10.6 51.2 25.72 1.013
12:56 1015 29.97 844 24.92 25.6 78 40 11.3 52.3 25.75 1.014
12:57 1015 29.97 844 24.92 25.6 78.1 41 11.5 52.7 25.77 1.015
12:58 1015 29.97 844 24.92 25.7 78.2 38 10.6 51.1 25.83 1.017
12:59 1015 29.97 844 24.92 25.8 78.4 39 10.9 51.6 25.94 1.021
13:00 1015 29.97 844 24.92 25.6 78.1 40 11.2 52.1 25.78 1.015
13:01 1015 29.97 844 24.92 25.3 77.6 42 11.6 52.8 25.43 1.001
13:02 1015 29.97 844 24.92 25 76.9 42 11.3 52.3 25.06 0.987
13:03 1015 29.97 844 24.92 24.6 76.3 39 10.1 50.2 24.73 0.974
13:04 1015 29.97 844 24.92 24.4 75.8 42 10.6 51.2 24.47 0.963
13:05 1015 29.97 844 24.92 24.2 75.5 44 11.3 52.3 24.34 0.958
13:06 1015 29.97 844 24.92 24 75.2 44 11.1 51.9 24.24 0.954
13:07 1015 29.97 844 24.92 23.9 74.9 42 10.3 50.6 24.08 0.948
13:08 1015 29.97 844 24.92 23.8 74.8 48 12.2 53.9 23.98 0.944
13:09 1015 29.97 844 24.92 23.6 74.5 48 12 53.7 23.87 0.94
13:10 1014 29.94 844 24.92 23.5 74.2 45 10.9 51.6 23.7 0.933
13:11 1014 29.94 844 24.92 23.4 74.1 47 11.7 53.1 23.59 0.929
13:12 1014 29.94 844 24.92 23.4 74 44 10.5 50.8 23.54 0.927
13:13 1014 29.94 844 24.92 23.3 74 45 11 51.7 23.54 0.927
13:14 1014 29.94 843 24.89 23.3 73.9 48 11.7 53 23.53 0.926
13:15 1014 29.94 843 24.89 23.2 73.7 48 11.8 53.2 23.4 0.921
13:16 1014 29.94 843 24.89 23.1 73.6 44 10.5 50.9 23.35 0.919
13:17 1014 29.94 843 24.89 23.1 73.6 46 10.9 51.7 23.25 0.915
13:18 1014 29.94 843 24.89 23.1 73.5 48 11.5 52.7 23.37 0.92
13:19 1014 29.94 844 24.92 23.1 73.5 47 11.3 52.4 23.36 0.92
13:20 1014 29.94 844 24.92 23 73.5 49 11.9 53.4 23.32 0.918
13:21 1014 29.94 844 24.92 23 73.4 47 11.3 52.3 23.34 0.919
13:22 1014 29.94 844 24.92 23 73.4 47 11.2 52.1 23.3 0.917
13:23 1014 29.94 844 24.92 23 73.5 48 11.5 52.8 23.31 0.918
13:24 1014 29.94 844 24.92 23 73.4 48 11.6 52.9 23.31 0.918
13:25 1014 29.94 844 24.92 23 73.4 46 11.1 52 23.29 0.917
13:26 1014 29.94 844 24.92 23.1 73.5 46 10.9 51.7 23.34 0.919
13:27 1014 29.94 844 24.92 23.2 73.7 47 11.3 52.3 23.52 0.926
13:28 1014 29.94 844 24.92 23.2 73.8 45 10.9 51.6 23.57 0.928
13:29 1015 29.97 844 24.92 23.3 73.9 47 11.6 52.9 23.62 0.93
13:30 1015 29.97 844 24.92 23.4 74 47 11.7 53 23.7 0.933
13:31 1014 29.94 844 24.92 23.5 74.2 48 11.9 53.4 23.81 0.937
13:32 1014 29.94 844 24.92 23.5 74.3 46 11.3 52.4 23.83 0.938
13:33 1014 29.94 844 24.92 23.6 74.4 43 10.5 50.8 23.89 0.941
13:34 1014 29.94 844 24.92 23.6 74.5 43 10.4 50.8 23.98 0.944
13:35 1014 29.94 844 24.92 23.7 74.6 48 12.3 54.1 24.05 0.947
13:36 1014 29.94 844 24.92 23.7 74.7 49 12.4 54.4 24.07 0.948
13:37 1014 29.94 844 24.92 23.7 74.6 44 10.8 51.4 24.05 0.947
13:38 1014 29.94 844 24.92 23.7 74.7 43 10.7 51.2 24.04 0.946
13:39 1014 29.94 844 24.92 23.8 74.8 42 10.3 50.6 24.06 0.947
13:40 1014 29.94 844 24.92 23.9 75 46 11.7 53.1 24.19 0.952
13:41 1014 29.94 844 24.92 23.9 75.1 45 11.3 52.3 24.33 0.958
13:42 1014 29.94 844 24.92 24 75.2 48 12.5 54.5 24.42 0.961
13:43 1014 29.94 844 24.92 24 75.2 45 11.4 52.5 24.45 0.963
13:44 1014 29.94 844 24.92 24.1 75.4 41 10.2 50.4 24.49 0.964
13:45 1014 29.94 844 24.92 24.2 75.6 43 10.9 51.6 24.58 0.968
13:46 1014 29.94 844 24.92 24.4 75.8 43 11.3 52.4 24.75 0.974
13:47 1014 29.94 844 24.92 24.4 76 45 11.8 53.2 24.92 0.981
13:48 1014 29.94 844 24.92 24.5 76.1 46 12.2 53.9 25 0.984
13:49 1014 29.94 843 24.89 24.5 76 45 12.1 53.8 25 0.984
13:50 1014 29.94 844 24.92 24.4 76 46 12.1 53.7 24.98 0.983
13:51 1014 29.94 844 24.92 24.4 75.9 43 11.3 52.4 24.92 0.981
13:52 1014 29.94 844 24.92 24.5 76.1 51 13.7 56.7 24.93 0.981
13:53 1014 29.94 843 24.89 24.7 76.4 43 11.5 52.7 25.24 0.994
13:54 1014 29.94 843 24.89 24.8 76.6 45 12.2 53.9 25.22 0.993
13:55 1014 29.94 843 24.89 24.9 76.7 41 10.9 51.7 25.37 0.999
13:56 1014 29.94 843 24.89 24.9 76.8 42 11.1 52.1 25.35 0.998
13:57 1014 29.94 843 24.89 24.9 76.9 43 11.7 53.1 25.39 1
13:58 1014 29.94 843 24.89 25 77 42 11.2 52.2 25.35 0.998
13:59 1014 29.94 843 24.89 24.9 76.8 42 11.3 52.3 25.32 0.997
14:00 1014 29.94 843 24.89 24.9 76.8 43 11.5 52.7 25.26 0.994
14:01 1014 29.94 843 24.89 24.8 76.6 40 10.4 50.7 25.09 0.988
14:02 1014 29.94 843 24.89 24.6 76.3 45 12.1 53.7 24.98 0.983
14:03 1014 29.94 843 24.89 24.7 76.4 42 11.3 52.3 25.06 0.987
14:04 1014 29.94 843 24.89 24.7 76.4 42 11.1 52 24.94 0.982
14:05 1014 29.94 843 24.89 24.4 75.9 44 11.5 52.8 24.69 0.972
14:06 1014 29.94 843 24.89 24.4 75.8 43 11.1 52 24.69 0.972
14:07 1014 29.94 843 24.89 24.2 75.5 44 11.4 52.5 24.42 0.961
14:08 1014 29.94 843 24.89 24 75.2 45 11.5 52.7 24.33 0.958
14:09 1014 29.94 843 24.89 24.1 75.3 47 12.2 53.9 24.5 0.965
14:10 1014 29.94 843 24.89 24.4 75.9 43 11.1 52 24.89 0.98
14:11 1014 29.94 843 24.89 24.5 76.1 43 11.4 52.4 24.84 0.978
14:12 1014 29.94 843 24.89 24.3 75.8 43 11 51.8 24.69 0.972
14:13 1014 29.94 843 24.89 24.1 75.4 44 11.4 52.5 24.47 0.963
14:14 1014 29.94 843 24.89 24 75.2 44 11.2 52.2 24.31 0.957
14:15 1014 29.94 843 24.89 23.9 75.1 45 11.5 52.6 24.27 0.956
14:16 1014 29.94 843 24.89 23.8 74.8 45 11.4 52.5 24.08 0.948
14:17 1014 29.94 843 24.89 23.6 74.5 46 11.6 52.8 23.94 0.943
14:18 1014 29.94 843 24.89 23.6 74.5 46 11.4 52.6 24.02 0.946
14:19 1014 29.94 843 24.89 23.7 74.6 47 11.8 53.2 24.07 0.948
14:20 1014 29.94 843 24.89 23.8 74.9 45 11.2 52.2 24.2 0.953
14:21 1014 29.94 843 24.89 23.8 74.9 46 11.7 53.1 24.21 0.953
14:22 1014 29.94 843 24.89 24 75.2 46 11.8 53.2 24.35 0.959
14:23 1013 29.91 843 24.89 24.1 75.3 46 11.8 53.3 24.4 0.961
14:24 1013 29.91 843 24.89 24.2 75.5 46 11.9 53.4 24.6 0.969
14:25 1013 29.91 843 24.89 24.5 76 45 11.8 53.3 24.88 0.98
14:26 1013 29.91 843 24.89 24.7 76.4 42 11.3 52.3 25.08 0.987
14:27 1013 29.91 843 24.89 24.6 76.4 44 11.8 53.2 24.93 0.981
14:28 1013 29.91 843 24.89 24.6 76.2 45 12.1 53.7 24.93 0.981
14:29 1013 29.91 843 24.89 24.7 76.5 42 11 51.8 25.06 0.987
14:30 1013 29.91 843 24.89 24.7 76.4 42 11 51.7 24.96 0.983
14:31 1013 29.91 842 24.86 24.5 76.1 40 10.1 50.2 24.71 0.973
14:32 1013 29.91 842 24.86 24.3 75.8 43 11 51.8 24.64 0.97
14:33 1013 29.91 842 24.86 24.3 75.7 42 10.8 51.4 24.67 0.971
14:34 1013 29.91 842 24.86 24.3 75.7 42 10.8 51.4 24.71 0.973
14:35 1013 29.91 842 24.86 24.3 75.8 42 10.9 51.5 24.69 0.972
14:36 1013 29.91 842 24.86 24.3 75.8 42 10.7 51.3 24.67 0.971
14:37 1013 29.91 842 24.86 24.3 75.7 43 11 51.7 24.61 0.969
14:38 1013 29.91 842 24.86 24.2 75.6 42 10.9 51.5 24.6 0.969
14:39 1013 29.91 842 24.86 24.2 75.6 41 10.3 50.5 24.54 0.966
14:40 1013 29.91 842 24.86 24.1 75.5 42 10.5 50.8 24.49 0.964
14:41 1013 29.91 842 24.86 24.1 75.4 41 10.4 50.7 24.48 0.964
14:42 1013 29.91 842 24.86 24.1 75.4 43 11 51.8 24.49 0.964
14:43 1013 29.91 842 24.86 24.1 75.4 42 10.5 50.8 24.48 0.964
14:44 1013 29.91 842 24.86 24.1 75.3 42 10.6 51.1 24.44 0.962
14:45 1013 29.91 842 24.86 24.2 75.5 42 10.7 51.2 24.55 0.967
14:46 1013 29.91 842 24.86 24.2 75.6 44 11.3 52.4 24.65 0.97
14:47 1013 29.91 842 24.86 24.3 75.7 42 10.6 51.2 24.62 0.969
14:48 1013 29.91 842 24.86 24 75.3 44 11.2 52.1 24.28 0.956
14:49 1013 29.91 842 24.86 23.8 74.9 44 11.1 52 24.18 0.952
14:50 1013 29.91 842 24.86 24 75.2 42 10.5 50.8 24.38 0.96
14:51 1013 29.91 842 24.86 24.2 75.6 42 10.8 51.4 24.6 0.969
14:52 1013 29.91 842 24.86 24.5 76.1 39 9.8 49.6 24.9 0.98
14:53 1013 29.91 842 24.86 24.6 76.4 39 10.2 50.3 25.02 0.985
14:54 1013 29.91 842 24.86 24.7 76.5 40 10.4 50.6 25.01 0.985
14:55 1013 29.91 842 24.86 24.8 76.6 42 11.2 52.2 25.08 0.987
14:56 1013 29.91 842 24.86 24.8 76.6 43 11.5 52.7 25.17 0.991
14:57 1013 29.91 842 24.86 24.9 76.7 43 11.5 52.8 25.19 0.992
14:58 1013 29.91 842 24.86 24.9 76.9 41 11 51.8 25.33 0.997
14:59 1013 29.91 842 24.86 25 77 40 10.7 51.3 25.31 0.996
15:00 1012 29.88 842 24.86 25 77 41 10.9 51.6 25.32 0.997
15:01 1012 29.88 842 24.86 25.1 77.1 40 10.6 51.1 25.43 1.001
15:02 1012 29.88 842 24.86 25.3 77.5 41 11.2 52.2 25.7 1.012
15:03 1012 29.88 842 24.86 25.6 78.1 40 11.4 52.5 25.97 1.022
15:04 1012 29.88 842 24.86 25.9 78.5 36 10.1 50.1 26.26 1.034
15:05 1012 29.88 842 24.86 26 78.7 36 10.1 50.1 26.31 1.036
15:06 1012 29.88 842 24.86 26 78.7 36 10.1 50.1 26.28 1.035
15:07 1012 29.88 842 24.86 25.9 78.6 39 11.2 52.1 26.17 1.03
15:08 1012 29.88 842 24.86 25.9 78.5 36 10 50.1 26.16 1.03
15:09 1012 29.88 842 24.86 25.8 78.4 36 9.6 49.3 26.02 1.024
15:10 1012 29.88 841 24.83 25.7 78.2 36 9.6 49.3 25.98 1.023
15:11 1012 29.88 842 24.86 25.7 78.2 36 9.8 49.6 25.97 1.022
15:12 1012 29.88 842 24.86 25.7 78.2 38 10.6 51.1 26 1.024
15:13 1012 29.88 841 24.83 25.7 78.3 35 9.5 49.1 26.03 1.025
15:14 1012 29.88 841 24.83 25.5 78 36 9.5 49.1 25.81 1.016
15:15 1012 29.88 841 24.83 25.5 77.8 37 10 50 25.78 1.015
15:16 1012 29.88 842 24.86 25.4 77.6 36 9.3 48.8 25.7 1.012
15:17 1012 29.88 842 24.86 25.4 77.8 36 9.4 48.8 25.74 1.013
15:18 1012 29.88 842 24.86 25.5 78 36 9.7 49.4 25.9 1.02
15:19 1012 29.88 842 24.86 25.8 78.5 34 9.1 48.3 26.17 1.03
15:20 1012 29.88 842 24.86 25.8 78.4 35 9.4 49 26.07 1.026
15:21 1012 29.88 842 24.86 25.6 78.1 36 9.8 49.7 25.93 1.021
15:22 1012 29.88 841 24.83 25.4 77.7 36 9.7 49.4 25.69 1.011
15:23 1012 29.88 841 24.83 25.2 77.3 37 9.7 49.4 25.48 1.003
15:24 1012 29.88 842 24.86 25 77 39 10.3 50.5 25.37 0.999
15:25 1012 29.88 842 24.86 25 76.9 37 9.6 49.3 25.3 0.996
15:26 1012 29.88 842 24.86 24.9 76.7 38 9.6 49.4 25.18 0.991
15:27 1012 29.88 842 24.86 24.8 76.7 36 9.1 48.3 25.13 0.989
15:28 1012 29.88 842 24.86 24.7 76.5 37 9.1 48.4 25.04 0.986
15:29 1012 29.88 841 24.83 24.6 76.3 35 8.5 47.3 24.88 0.98
15:30 1012 29.88 841 24.83 24.5 76 37 9.2 48.5 24.77 0.975
15:31 1012 29.88 841 24.83 24.4 75.9 37 9.1 48.4 24.68 0.972
15:32 1012 29.88 841 24.83 24.3 75.7 39 9.6 49.2 24.6 0.969
15:33 1012 29.88 841 24.83 24.2 75.6 39 9.6 49.2 24.56 0.967
15:34 1012 29.88 841 24.83 24.2 75.6 39 9.4 48.9 24.53 0.966
15:35 1012 29.88 841 24.83 24.2 75.5 39 9.5 49.1 24.53 0.966
15:36 1012 29.88 841 24.83 24.1 75.4 39 9.7 49.4 24.44 0.962
15:37 1012 29.88 841 24.83 24.1 75.3 42 10.6 51.2 24.41 0.961
15:38 1012 29.88 841 24.83 24.1 75.4 40 9.8 49.6 24.42 0.961
15:39 1012 29.88 841 24.83 24 75.3 41 10.1 50.1 24.39 0.96
15:40 1012 29.88 841 24.83 24 75.3 40 9.8 49.7 24.36 0.959
15:41 1012 29.88 841 24.83 23.9 75.1 40 9.6 49.2 24.31 0.957
15:42 1012 29.88 841 24.83 23.9 75 41 10 50 24.24 0.954
15:43 1012 29.88 841 24.83 23.8 74.9 41 10.1 50.1 24.2 0.953
15:44 1012 29.88 841 24.83 23.8 74.8 42 10.3 50.5 24.14 0.95
15:45 1012 29.88 841 24.83 23.8 74.8 41 10.1 50.2 24.11 0.949
15:46 1012 29.88 841 24.83 23.8 74.8 42 10.5 50.8 24.09 0.948
15:47 1012 29.88 841 24.83 23.7 74.7 42 10.2 50.4 24.04 0.946
15:48 1012 29.88 842 24.86 23.7 74.7 42 10.1 50.2 24.02 0.946
15:49 1012 29.88 842 24.86 23.6 74.6 43 10.5 50.9 23.99 0.944
15:50 1012 29.88 842 24.86 23.6 74.5 43 10.6 51.1 23.91 0.941
15:51 1012 29.88 842 24.86 23.5 74.4 43 10.5 50.9 23.86 0.939
15:52 1012 29.88 842 24.86 23.5 74.3 44 10.6 51 23.81 0.937
15:53 1013 29.91 842 24.86 23.4 74.1 44 10.6 51.1 23.74 0.935
15:54 1013 29.91 842 24.86 23.4 74.1 44 10.5 50.9 23.68 0.932
15:55 1013 29.91 842 24.86 23.3 74 44 10.6 51.1 23.67 0.932
15:56 1013 29.91 842 24.86 23.3 73.9 44 10.6 51 23.6 0.929
15:57 1012 29.88 842 24.86 23.3 73.9 45 10.9 51.6 23.6 0.929
15:58 1013 29.91 842 24.86 23.2 73.8 45 10.7 51.3 23.55 0.927
15:59 1013 29.91 842 24.86 23.2 73.8 45 10.8 51.4 23.56 0.928
16:00 1013 29.91 842 24.86 23.2 73.7 45 10.7 51.3 23.52 0.926
16:01 1012 29.88 842 24.86 23.2 73.7 45 10.6 51.1 23.55 0.927
16:02 1012 29.88 842 24.86 23.2 73.8 45 10.8 51.5 23.54 0.927
16:03 1012 29.88 842 24.86 23.2 73.7 45 10.9 51.6 23.52 0.926
16:04 1012 29.88 842 24.86 23.1 73.6 45 10.6 51 23.46 0.924
16:05 1012 29.88 842 24.86 23.1 73.6 45 10.8 51.5 23.45 0.923
16:06 1012 29.88 842 24.86 23.1 73.6 45 10.6 51.1 23.43 0.922
16:07 1012 29.88 842 24.86 23.1 73.6 45 10.7 51.3 23.46 0.924
16:08 1012 29.88 842 24.86 23.1 73.5 45 10.6 51.1 23.41 0.922
16:09 1013 29.91 842 24.86 23.1 73.5 46 10.9 51.6 23.42 0.922
16:10 1013 29.91 842 24.86 23 73.5 45 10.8 51.4 23.41 0.922
16:11 1013 29.91 842 24.86 23.1 73.5 47 11.2 52.1 23.41 0.922
16:12 1013 29.91 842 24.86 23 73.4 46 11 51.9 23.35 0.919
16:13 1013 29.91 842 24.86 23 73.3 47 11.2 52.2 23.3 0.917
16:14 1013 29.91 842 24.86 22.9 73.2 47 11.2 52.2 23.29 0.917
16:15 1013 29.91 842 24.86 22.9 73.2 47 11.1 52.1 23.24 0.915
16:16 1013 29.91 842 24.86 22.9 73.2 46 10.7 51.3 23.22 0.914
16:17 1013 29.91 842 24.86 23 73.3 46 10.9 51.6 23.31 0.918
16:18 1013 29.91 842 24.86 23 73.4 46 11 51.8 23.35 0.919
16:19 1013 29.91 842 24.86 23 73.4 46 11 51.8 23.33 0.919
16:20 1013 29.91 842 24.86 23 73.4 46 10.8 51.5 23.32 0.918
16:21 1013 29.91 842 24.86 23 73.3 44 10.3 50.5 23.28 0.917
16:22 1013 29.91 842 24.86 23 73.3 45 10.5 50.9 23.3 0.917
16:23 1013 29.91 842 24.86 23 73.3 44 10.4 50.7 23.32 0.918
16:24 1013 29.91 842 24.86 23 73.3 45 10.6 51.1 23.24 0.915
16:25 1013 29.91 842 24.86 22.9 73.2 44 10.2 50.3 23.19 0.913
16:26 1013 29.91 842 24.86 22.9 73.2 44 10.2 50.4 23.22 0.914
16:27 1013 29.91 842 24.86 22.8 73.1 43 9.8 49.7 23.21 0.914
16:28 1013 29.91 842 24.86 22.9 73.2 43 9.8 49.7 23.25 0.915
16:29 1013 29.91 842 24.86 22.9 73.2 43 9.9 49.9 23.27 0.916
16:30 1013 29.91 842 24.86 22.9 73.2 42 9.7 49.4 23.24 0.915
16:31 1013 29.91 842 24.86 22.9 73.2 42 9.6 49.3 23.24 0.915
16:32 1013 29.91 842 24.86 22.9 73.2 44 10.1 50.1 23.25 0.915
16:33 1013 29.91 842 24.86 22.9 73.1 44 10.1 50.2 23.15 0.911
16:34 1013 29.91 842 24.86 22.7 72.9 44 9.9 49.8 23.07 0.908
16:35 1013 29.91 842 24.86 22.7 72.9 44 10 50.1 23.04 0.907
16:36 1013 29.91 842 24.86 22.7 72.8 42 9.4 48.8 22.99 0.905
16:37 1013 29.91 842 24.86 22.8 73 35 6.8 44.2 23.1 0.909
16:38 1013 29.91 842 24.86 23.1 73.5 36 7.2 45 23.39 0.921
16:39 1013 29.91 842 24.86 23.3 73.9 37 8 46.4 23.7 0.933
16:40 1013 29.91 842 24.86 23.3 74 39 8.9 48.1 23.68 0.932
16:41 1013 29.91 842 24.86 23.3 73.9 37 7.8 46 23.59 0.929
16:42 1013 29.91 842 24.86 23.2 73.8 37 7.9 46.3 23.53 0.926
16:43 1013 29.91 842 24.86 23.2 73.7 37 7.8 46 23.54 0.927
16:44 1013 29.91 842 24.86 23.2 73.7 36 7.3 45.1 23.48 0.924
16:45 1013 29.91 842 24.86 23.2 73.8 36 7.4 45.3 23.53 0.926
16:46 1013 29.91 842 24.86 23.2 73.8 36 7.7 45.9 23.55 0.927
16:47 1013 29.91 842 24.86 23.3 73.9 37 8 46.3 23.58 0.928
16:48 1013 29.91 842 24.86 23.2 73.8 37 7.9 46.1 23.56 0.928
16:49 1013 29.91 842 24.86 23.3 73.9 37 8.1 46.6 23.58 0.928
16:50 1013 29.91 842 24.86 23.2 73.8 36 7.6 45.7 23.52 0.926
16:51 1013 29.91 842 24.86 23.2 73.7 38 8.4 47.2 23.53 0.926
16:52 1013 29.91 842 24.86 23.1 73.7 36 7.4 45.3 23.46 0.924
16:53 1013 29.91 842 24.86 23.1 73.6 35 7 44.6 23.44 0.923
16:54 1013 29.91 842 24.86 23.2 73.8 34 6.6 43.9 23.58 0.928
16:55 1013 29.91 842 24.86 23.3 73.9 37 8 46.3 23.56 0.928
16:56 1013 29.91 842 24.86 23.2 73.8 35 7.3 45.1 23.55 0.927
16:57 1013 29.91 842 24.86 23.2 73.8 34 6.5 43.8 23.6 0.929
16:58 1013 29.91 842 24.86 23.3 73.9 38 8.3 46.9 23.58 0.928
16:59 1013 29.91 842 24.86 23.1 73.6 37 8 46.3 23.42 0.922
17:00 1013 29.91 842 24.86 23.1 73.5 37 7.9 46.2 23.41 0.922
17:01 1013 29.91 842 24.86 23 73.5 38 8.3 46.9 23.37 0.92
17:02 1013 29.91 842 24.86 23.1 73.5 35 7 44.6 23.39 0.921
17:03 1013 29.91 842 24.86 23.2 73.7 32 6 42.7 23.55 0.927
17:04 1013 29.91 842 24.86 23.4 74.1 34 6.9 44.4 23.68 0.932
17:05 1013 29.91 842 24.86 23.4 74.2 35 7.5 45.5 23.79 0.937
17:06 1013 29.91 842 24.86 23.4 74.1 34 6.9 44.3 23.67 0.932
17:07 1013 29.91 842 24.86 23.3 73.9 38 8.4 47.1 23.64 0.931
17:08 1013 29.91 842 24.86 23.3 73.9 36 7.7 45.8 23.56 0.928
17:09 1013 29.91 842 24.86 23.2 73.7 37 8.1 46.5 23.41 0.922
17:10 1013 29.91 842 24.86 23.1 73.5 37 7.9 46.2 23.38 0.92
17:11 1013 29.91 843 24.89 23 73.5 38 8.1 46.6 23.32 0.918
17:12 1013 29.91 843 24.89 23 73.4 41 9.4 48.9 23.39 0.921
17:13 1013 29.91 843 24.89 22.8 73.1 41 9.1 48.4 23.27 0.916
17:14 1013 29.91 843 24.89 22.7 72.8 40 8.5 47.4 23.14 0.911
17:15 1013 29.91 842 24.86 22.6 72.8 41 8.8 47.8 23.01 0.906
17:16 1013 29.91 843 24.89 22.7 72.8 42 9.3 48.7 23.04 0.907
17:17 1013 29.91 843 24.89 22.7 72.8 40 8.4 47.2 23.03 0.907
17:18 1013 29.91 843 24.89 22.7 72.8 39 8.1 46.7 23.01 0.906
17:19 1014 29.94 843 24.89 22.7 72.9 35 6.7 44.1 23.08 0.909
17:20 1014 29.94 843 24.89 22.9 73.3 37 7.6 45.7 23.24 0.915
17:21 1014 29.94 843 24.89 23 73.5 43 10 50.1 23.41 0.922
17:22 1014 29.94 843 24.89 22.8 73 37 7.4 45.4 23.22 0.914
17:23 1014 29.94 843 24.89 22.7 72.9 37 7.5 45.4 23.03 0.907
17:24 1014 29.94 843 24.89 22.6 72.6 37 7.4 45.4 22.95 0.904
17:25 1014 29.94 843 24.89 22.4 72.3 38 7.8 46 22.83 0.899
17:26 1014 29.94 843 24.89 22.3 72.1 42 8.8 47.9 22.76 0.896
17:27 1014 29.94 843 24.89 22.2 71.9 41 8.6 47.4 22.65 0.892
17:28 1013 29.91 842 24.86 22.1 71.7 40 8 46.5 22.53 0.887
17:29 1013 29.91 842 24.86 22 71.6 38 7.1 44.8 22.42 0.883
17:30 1013 29.91 842 24.86 22 71.7 44 9.5 49.1 22.43 0.883
17:31 1013 29.91 842 24.86 22 71.6 33 5.2 41.4 22.37 0.881
17:32 1012 29.88 842 24.86 22.4 72.3 19 -1.9 28.7 22.77 0.896
17:33 1012 29.88 842 24.86 23.5 74.4 19 -1.2 29.9 23.76 0.935
17:34 1012 29.88 842 24.86 24.1 75.4 27 4.2 39.6 24.44 0.962
17:35 1013 29.91 842 24.86 23.8 74.8 29 5.1 41.1 24.19 0.952
17:36 1012 29.88 842 24.86 23.3 73.9 25 2.2 35.9 23.58 0.928
17:37 1012 29.88 842 24.86 23.2 73.8 25 2.1 35.8 23.56 0.928
17:38 1013 29.91 842 24.86 23.4 74 29 4.8 40.6 23.68 0.932
17:39 1013 29.91 842 24.86 23 73.4 31 5 41 23.31 0.918
17:40 1013 29.91 842 24.86 22.5 72.6 28 3.3 37.9 22.87 0.9
17:41 1013 29.91 842 24.86 22.4 72.2 27 2.8 37 22.65 0.892
17:42 1013 29.91 842 24.86 22.3 72.2 27 2.7 36.9 22.68 0.893
17:43 1013 29.91 842 24.86 22.3 72.2 29 3.4 38.1 22.63 0.891
17:44 1013 29.91 842 24.86 22.3 72.1 28 3.1 37.6 22.55 0.888
17:45 1013 29.91 842 24.86 22.1 71.8 30 3.7 38.7 22.44 0.883
17:46 1013 29.91 842 24.86 22 71.7 31 4.1 39.4 22.41 0.882
17:47 1013 29.91 842 24.86 21.9 71.4 31 4.1 39.4 22.21 0.874
17:48 1013 29.91 842 24.86 21.7 71.1 31 4.1 39.3 22.02 0.867
17:49 1013 29.91 842 24.86 21.6 70.8 32 4.2 39.5 21.89 0.862
17:50 1013 29.91 842 24.86 21.5 70.6 32 4.4 39.9 21.79 0.858
17:51 1013 29.91 842 24.86 21.4 70.5 34 5.1 41.1 21.74 0.856
17:52 1013 29.91 842 24.86 21.1 70 38 6.3 43.3 21.5 0.846
17:53 1013 29.91 843 24.89 20.6 69.1 39 6.4 43.6 21.08 0.83
17:54 1013 29.91 843 24.89 20.2 68.4 40 6.2 43.2 20.7 0.815
17:55 1013 29.91 843 24.89 20 68 41 6.4 43.6 20.44 0.805
17:56 1013 29.91 843 24.89 19.9 67.8 41 6.4 43.6 20.35 0.801
17:57 1013 29.91 843 24.89 19.9 67.8 41 6.3 43.3 20.28 0.798
17:58 1013 29.91 843 24.89 20 67.9 41 6.3 43.4 20.28 0.798
17:59 1013 29.91 842 24.86 20 67.9 41 6.5 43.7 20.31 0.8
18:00 1013 29.91 842 24.86 19.9 67.9 42 6.7 44 20.32 0.8
18:01 1013 29.91 842 24.86 19.9 67.9 43 7.1 44.7 20.29 0.799
18:02 1013 29.91 842 24.86 19.8 67.7 44 7.4 45.3 20.15 0.793
18:03 1013 29.91 842 24.86 19.8 67.6 43 7 44.5 20.1 0.791
18:04 1013 29.91 842 24.86 19.8 67.6 43 6.9 44.5 20.12 0.792
18:05 1013 29.91 842 24.86 19.8 67.6 44 7.3 45.1 20.15 0.793
18:06 1013 29.91 842 24.86 19.8 67.6 46 7.9 46.2 20.11 0.792
18:07 1013 29.91 842 24.86 19.7 67.5 47 8.2 46.8 19.99 0.787
18:08 1013 29.91 842 24.86 19.6 67.2 46 7.6 45.7 19.87 0.782
18:09 1013 29.91 842 24.86 19.5 67.1 43 6.8 44.2 19.83 0.781
18:10 1013 29.91 842 24.86 19.5 67.2 41 6 42.8 19.85 0.781
18:11 1013 29.91 842 24.86 19.7 67.4 41 6 42.8 20 0.787
18:12 1013 29.91 843 24.89 19.7 67.5 44 7.3 45.1 20.09 0.791
18:13 1014 29.94 843 24.89 19.7 67.4 45 7.5 45.4 20.08 0.791
18:14 1014 29.94 843 24.89 19.5 67.2 46 7.9 46.2 19.96 0.786
18:15 1014 29.94 843 24.89 19.4 66.9 48 8.3 47 19.81 0.78
18:16 1014 29.94 843 24.89 19.1 66.4 51 8.8 47.8 19.57 0.77
18:17 1014 29.94 844 24.92 18.7 65.7 54 9.3 48.8 19.2 0.756
18:18 1015 29.97 844 24.92 18.4 65 55 9.2 48.6 18.79 0.74
18:19 1015 29.97 844 24.92 18 64.4 58 9.6 49.3 18.49 0.728
18:20 1015 29.97 844 24.92 17.7 63.8 59 9.6 49.3 18.14 0.714
18:21 1015 29.97 844 24.92 17.5 63.5 58 9.3 48.7 17.89 0.704
18:22 1015 29.97 844 24.92 17.4 63.4 61 9.8 49.7 17.85 0.703
18:23 1015 29.97 844 24.92 17.2 63 63 10.2 50.4 17.75 0.699
18:24 1015 29.97 844 24.92 16.7 62.1 65 10.1 50.2 17.2 0.677
18:25 1015 29.97 844 24.92 15.7 60.2 68 9.9 49.9 16 0.63
18:26 1015 29.97 844 24.92 14.7 58.4 71 9.5 49.2 14.89 0.586
18:27 1015 29.97 844 24.92 14.2 57.6 70 9 48.1 14.4 0.567
18:28 1015 29.97 844 24.92 14.3 57.7 72 9.5 49 14.31 0.563
18:29 1015 29.97 844 24.92 14.1 57.3 76 9.9 49.7 14.19 0.559
18:30 1015 29.97 844 24.92 13.8 56.9 78 10 50.1 13.98 0.55
18:31 1015 29.97 844 24.92 13.5 56.3 79 10 50 13.76 0.542
18:32 1015 29.97 844 24.92 13.4 56 80 10 50 13.63 0.537
18:33 1015 29.97 844 24.92 13.2 55.8 81 10.1 50.2 13.49 0.531
18:34 1015 29.97 844 24.92 13.1 55.7 79 9.6 49.3 13.43 0.529
18:35 1015 29.97 844 24.92 13.3 56 78 9.6 49.3 13.53 0.533
18:36 1015 29.97 844 24.92 13.5 56.3 78 9.8 49.6 13.72 0.54
18:37 1015 29.97 845 24.95 13.6 56.5 79 10.1 50.1 13.8 0.543
18:38 1015 29.97 845 24.95 13.6 56.5 80 10.1 50.3 13.85 0.545
18:39 1015 29.97 845 24.95 13.6 56.5 79 10 50 13.82 0.544
18:40 1015 29.97 844 24.92 13.7 56.6 78 10 49.9 13.9 0.547
18:41 1015 29.97 844 24.92 13.7 56.7 78 10 50 13.95 0.549
18:42 1015 29.97 844 24.92 13.8 56.8 79 10.2 50.4 14.04 0.553
18:43 1015 29.97 844 24.92 13.7 56.7 78 10 50.1 14 0.551
18:44 1015 29.97 844 24.92 13.8 56.8 78 10 50.1 14.08 0.554
18:45 1015 29.97 845 24.95 13.9 56.9 79 10.3 50.5 14.13 0.556
18:46 1016 30 845 24.95 13.9 57.1 79 10.4 50.8 14.18 0.558
18:47 1016 30 845 24.95 13.9 57.1 80 10.5 50.8 14.24 0.561
18:48 1016 30 845 24.95 13.9 56.9 80 10.6 51 14.21 0.559
18:49 1016 30 845 24.95 13.8 56.9 81 10.7 51.2 14.2 0.559
18:50 1016 30 845 24.95 13.8 56.8 81 10.7 51.2 14.18 0.558
18:51 1016 30 845 24.95 13.8 56.8 83 10.9 51.7 14.17 0.558
18:52 1016 30 845 24.95 13.7 56.6 83 10.9 51.5 14.14 0.557
18:53 1016 30 845 24.95 13.7 56.6 83 10.9 51.6 14.1 0.555
18:54 1016 30 845 24.95 13.6 56.5 84 10.9 51.6 14.04 0.553
18:55 1016 30 845 24.95 13.6 56.5 85 11.1 51.9 14.04 0.553
18:56 1016 30 845 24.95 13.6 56.4 85 11.2 52.1 14.01 0.552
18:57 1016 30 845 24.95 13.5 56.3 86 11.3 52.4 14.01 0.552
18:58 1016 30 845 24.95 13.4 56.2 87 11.4 52.5 13.95 0.549
18:59 1016 30 845 24.95 13.4 56.1 89 11.5 52.8 13.94 0.549
19:00 1016 30 845 24.95 13.4 56.1 87 11.4 52.5 13.89 0.547
19:01 1016 30 845 24.95 13.5 56.3 87 11.4 52.5 13.98 0.55
19:02 1016 30 845 24.95 13.6 56.5 87 11.5 52.7 14.08 0.554
19:03 1016 30 845 24.95 13.8 56.8 86 11.5 52.8 14.19 0.559
19:04 1016 30 845 24.95 13.9 57.1 86 11.7 53.1 14.33 0.564
19:05 1016 30 845 24.95 14 57.3 85 11.6 52.9 14.41 0.567
19:06 1016 30 845 24.95 14.2 57.5 82 11.2 52.1 14.52 0.572
19:07 1016 30 845 24.95 14.4 57.8 81 11.2 52.1 14.61 0.575
19:08 1016 30 845 24.95 14.5 58.1 81 11.4 52.5 14.8 0.583
19:09 1016 30 845 24.95 14.6 58.3 82 11.6 52.9 14.95 0.589
19:10 1016 30 845 24.95 14.7 58.4 81 11.5 52.6 15.02 0.591
19:11 1016 30 845 24.95 14.7 58.5 82 11.6 52.9 15.06 0.593
19:12 1016 30 845 24.95 14.8 58.6 81 11.6 52.9 15.11 0.595
19:13 1016 30 845 24.95 14.8 58.6 82 11.7 53.1 15.12 0.595
19:14 1016 30 845 24.95 14.8 58.6 81 11.6 53 15.07 0.593
19:15 1016 30 846 24.98 14.8 58.6 80 11.4 52.5 15.11 0.595
19:16 1016 30 846 24.98 14.8 58.6 81 11.7 53 15.09 0.594
19:17 1016 30 846 24.98 14.7 58.5 82 11.7 53.1 15.11 0.595
19:18 1016 30 846 24.98 14.7 58.5 82 11.7 53 15.09 0.594
19:19 1016 30 846 24.98 14.7 58.4 82 11.6 52.9 15.04 0.592
19:20 1016 30 846 24.98 14.7 58.5 80 11.3 52.4 15.07 0.593
19:21 1016 30 846 24.98 14.7 58.5 81 11.5 52.8 15.09 0.594
19:22 1016 30 846 24.98 14.8 58.6 81 11.6 52.8 15.13 0.596
19:23 1016 30 846 24.98 14.8 58.7 80 11.4 52.5 15.15 0.596
19:24 1016 30 846 24.98 14.8 58.7 80 11.5 52.6 15.16 0.597
19:25 1016 30 846 24.98 14.9 58.8 79 11.2 52.2 15.16 0.597
19:26 1016 30 846 24.98 14.9 58.9 79 11.3 52.4 15.25 0.6
19:27 1016 30 846 24.98 15 58.9 77 11 51.8 15.25 0.6
19:28 1016 30 846 24.98 15 59 79 11.4 52.4 15.33 0.604
19:29 1017 30.03 846 24.98 15 58.9 79 11.3 52.4 15.32 0.603
19:30 1017 30.03 846 24.98 14.9 58.8 78 11.1 52 15.25 0.6
19:31 1017 30.03 846 24.98 14.9 58.8 78 11.1 51.9 15.22 0.599
19:32 1017 30.03 846 24.98 15 59 74 10.5 50.9 15.29 0.602
19:33 1017 30.03 846 24.98 15.2 59.3 73 10.4 50.7 15.4 0.606
19:34 1017 30.03 846 24.98 15.3 59.5 73 10.5 51 15.52 0.611
19:35 1017 30.03 846 24.98 15.2 59.4 72 10.3 50.5 15.57 0.613
19:36 1017 30.03 846 24.98 15.4 59.6 69 9.9 49.8 15.64 0.616
19:37 1017 30.03 846 24.98 15.5 59.9 74 11 51.8 15.78 0.621
19:38 1017 30.03 846 24.98 15.4 59.7 76 11.3 52.3 15.75 0.62
19:39 1017 30.03 846 24.98 15.2 59.3 78 11.4 52.5 15.61 0.615
19:40 1017 30.03 846 24.98 15 59 78 11.2 52.2 15.47 0.609
19:41 1017 30.03 846 24.98 15 58.9 76 10.8 51.5 15.38 0.606
19:42 1017 30.03 846 24.98 15 59.1 74 10.6 51 15.38 0.606
19:43 1017 30.03 846 24.98 15.1 59.2 76 11 51.8 15.43 0.607
19:44 1017 30.03 846 24.98 15 59.1 77 11 51.8 15.41 0.607
19:45 1017 30.03 846 24.98 15 59 78 11.2 52.1 15.35 0.604
19:46 1017 30.03 846 24.98 15 58.9 78 11.1 52 15.33 0.604
19:47 1017 30.03 846 24.98 14.9 58.9 78 11.2 52.2 15.31 0.603
19:48 1017 30.03 846 24.98 14.8 58.7 78 11.1 51.9 15.27 0.601
19:49 1017 30.03 846 24.98 14.8 58.6 78 11 51.8 15.21 0.599
19:50 1017 30.03 846 24.98 14.8 58.6 76 10.7 51.3 15.16 0.597
19:51 1017 30.03 847 25.01 14.8 58.6 79 11.2 52.1 15.17 0.597
19:52 1017 30.03 847 25.01 14.8 58.6 79 11.1 52 15.16 0.597
19:53 1017 30.03 847 25.01 14.8 58.6 79 11.2 52.1 15.16 0.597
19:54 1018 30.06 847 25.01 14.7 58.5 79 11.2 52.1 15.11 0.595
19:55 1018 30.06 847 25.01 14.8 58.6 80 11.4 52.5 15.16 0.597
19:56 1018 30.06 847 25.01 14.7 58.4 78 10.8 51.5 15.13 0.596
19:57 1018 30.06 847 25.01 14.7 58.5 77 10.8 51.4 15.07 0.593
19:58 1018 30.06 847 25.01 14.7 58.5 76 10.7 51.2 15.06 0.593
19:59 1018 30.06 847 25.01 14.8 58.6 74 10.2 50.3 15.11 0.595
20:00 1018 30.06 847 25.01 14.9 58.7 74 10.4 50.7 15.18 0.598
20:01 1018 30.06 847 25.01 14.9 58.9 75 10.6 51 15.21 0.599
20:02 1018 30.06 847 25.01 14.9 58.9 77 10.9 51.7 15.29 0.602
20:03 1018 30.06 847 25.01 14.8 58.7 78 11.1 52 15.22 0.599
20:04 1018 30.06 847 25.01 14.7 58.4 79 11.1 52 15.1 0.594
20:05 1018 30.06 847 25.01 14.7 58.4 76 10.5 50.9 15.05 0.593
20:06 1018 30.06 847 25.01 14.7 58.5 77 10.8 51.5 15.07 0.593
20:07 1018 30.06 847 25.01 14.7 58.4 76 10.5 50.9 15.1 0.594
20:08 1018 30.06 847 25.01 14.8 58.6 76 10.5 51 15.07 0.593
20:09 1017 30.03 847 25.01 14.8 58.7 70 9.5 49 15.14 0.596
20:10 1018 30.06 847 25.01 15 58.9 72 10.1 50.1 15.24 0.6
20:11 1018 30.06 847 25.01 15.1 59.1 75 10.7 51.3 15.31 0.603
20:12 1018 30.06 847 25.01 15 58.9 74 10.3 50.6 15.3 0.602
20:13 1018 30.06 847 25.01 14.9 58.9 74 10.4 50.7 15.27 0.601
20:14 1018 30.06 847 25.01 14.9 58.8 75 10.6 51 15.27 0.601
20:15 1018 30.06 847 25.01 14.9 58.7 71 9.6 49.4 15.18 0.598
20:16 1018 30.06 847 25.01 15 59 75 10.7 51.2 15.28 0.602
20:17 1018 30.06 847 25.01 14.9 58.9 75 10.6 51 15.3 0.602
20:18 1018 30.06 847 25.01 14.8 58.6 74 10.3 50.5 15.18 0.598
20:19 1018 30.06 847 25.01 14.8 58.6 74 10.1 50.2 15.14 0.596
20:20 1018 30.06 847 25.01 14.8 58.6 77 10.8 51.5 15.14 0.596
20:21 1018 30.06 847 25.01 14.7 58.4 80 11.2 52.2 15.09 0.594
20:22 1018 30.06 847 25.01 14.5 58 80 11.1 52 14.97 0.589
20:23 1017 30.03 847 25.01 14.3 57.8 78 10.6 51.1 14.81 0.583
20:24 1017 30.03 847 25.01 14.3 57.8 79 10.9 51.5 14.75 0.581
20:25 1017 30.03 847 25.01 14.3 57.8 79 10.8 51.4 14.74 0.58
20:26 1017 30.03 847 25.01 14.3 57.7 78 10.5 51 14.7 0.579
20:27 1017 30.03 847 25.01 14.4 57.8 74 9.8 49.7 14.7 0.579
20:28 1017 30.03 847 25.01 14.5 58 75 10.2 50.3 14.78 0.582
20:29 1018 30.06 847 25.01 14.5 58 76 10.4 50.8 14.81 0.583
20:30 1018 30.06 847 25.01 14.4 58 77 10.4 50.7 14.76 0.581
20:31 1018 30.06 847 25.01 14.4 57.9 78 10.6 51 14.77 0.581
20:32 1018 30.06 847 25.01 14.4 57.9 80 11 51.8 14.75 0.581
20:33 1018 30.06 847 25.01 14.3 57.7 82 11.3 52.3 14.72 0.58
20:34 1018 30.06 847 25.01 14.1 57.4 83 11.3 52.3 14.62 0.576
20:35 1018 30.06 847 25.01 14 57.3 83 11.2 52.1 14.5 0.571
20:36 1018 30.06 847 25.01 14 57.2 82 11.1 51.9 14.43 0.568
20:37 1018 30.06 847 25.01 14 57.2 81 10.8 51.5 14.4 0.567
20:38 1018 30.06 847 25.01 14 57.2 81 10.9 51.6 14.41 0.567
20:39 1018 30.06 847 25.01 14 57.3 83 11.1 52.1 14.39 0.567
20:40 1018 30.06 847 25.01 14 57.2 83 11.2 52.1 14.4 0.567
20:41 1018 30.06 847 25.01 13.9 57 82 10.9 51.7 14.32 0.564
20:42 1018 30.06 847 25.01 13.9 57 83 11 51.9 14.29 0.563
20:43 1018 30.06 847 25.01 13.9 57 83 11.2 52.1 14.33 0.564
20:44 1018 30.06 847 25.01 13.9 57 83 11.1 51.9 14.29 0.563
20:45 1018 30.06 847 25.01 13.9 56.9 83 11.1 51.9 14.26 0.561
20:46 1018 30.06 847 25.01 13.9 57 83 11.1 51.9 14.25 0.561
20:47 1018 30.06 847 25.01 13.8 56.9 83 11 51.7 14.22 0.56
20:48 1018 30.06 847 25.01 13.8 56.8 84 11.2 52.2 14.19 0.559
20:49 1018 30.06 847 25.01 13.6 56.6 85 11.2 52.2 14.13 0.556
20:50 1018 30.06 847 25.01 13.6 56.4 86 11.3 52.4 14.07 0.554
20:51 1018 30.06 847 25.01 13.5 56.3 87 11.4 52.6 14.01 0.552
20:52 1018 30.06 847 25.01 13.5 56.2 87 11.4 52.5 13.94 0.549
20:53 1018 30.06 848 25.04 13.4 56.2 87 11.3 52.3 13.93 0.548
20:54 1019 30.09 848 25.04 13.4 56.1 88 11.5 52.6 13.85 0.545
20:55 1019 30.09 848 25.04 13.4 56.1 89 11.5 52.8 13.81 0.544
20:56 1019 30.09 848 25.04 13.3 56 88 11.4 52.6 13.77 0.542
20:57 1019 30.09 848 25.04 13.3 56 89 11.5 52.7 13.75 0.541
20:58 1019 30.09 848 25.04 13.3 55.9 89 11.5 52.8 13.72 0.54
20:59 1019 30.09 848 25.04 13.3 55.9 88 11.3 52.4 13.75 0.541
21:00 1019 30.09 848 25.04 13.4 56.1 88 11.5 52.6 13.75 0.541
21:01 1019 30.09 848 25.04 13.4 56.1 88 11.5 52.7 13.76 0.542
21:02 1019 30.09 848 25.04 13.4 56 88 11.4 52.6 13.71 0.54
21:03 1019 30.09 848 25.04 13.3 55.9 88 11.4 52.6 13.69 0.539
21:04 1019 30.09 848 25.04 13.3 55.9 89 11.5 52.7 13.67 0.538
21:05 1019 30.09 848 25.04 13.2 55.7 88 11.3 52.4 13.56 0.534
21:06 1019 30.09 848 25.04 13.2 55.8 88 11.3 52.3 13.58 0.535
21:07 1019 30.09 848 25.04 13.3 55.9 88 11.3 52.3 13.57 0.534
21:08 1019 30.09 848 25.04 13.2 55.8 88 11.3 52.4 13.6 0.535
21:09 1019 30.09 848 25.04 13.3 55.9 84 10.6 51.1 13.59 0.535
21:10 1019 30.09 848 25.04 13.5 56.2 82 10.5 51 13.63 0.537
21:11 1019 30.09 848 25.04 13.6 56.5 83 10.8 51.4 13.8 0.543
21:12 1019 30.09 848 25.04 13.7 56.6 82 10.8 51.4 13.88 0.546
21:13 1019 30.09 848 25.04 13.7 56.6 84 11 51.8 13.9 0.547
21:14 1019 30.09 848 25.04 13.6 56.5 80 10.2 50.4 13.86 0.546
21:15 1019 30.09 848 25.04 13.7 56.7 83 10.9 51.6 13.94 0.549
21:16 1019 30.09 848 25.04 13.7 56.6 84 11 51.7 13.92 0.548
21:17 1019 30.09 848 25.04 13.6 56.4 84 11 51.7 13.9 0.547
21:18 1019 30.09 848 25.04 13.6 56.4 75 9.2 48.5 13.83 0.544
21:19 1019 30.09 848 25.04 13.9 57 82 10.9 51.5 13.95 0.549
21:20 1019 30.09 848 25.04 13.8 56.8 83 11 51.9 14.07 0.554
21:21 1019 30.09 848 25.04 13.6 56.5 85 11.1 51.9 13.95 0.549
21:22 1019 30.09 848 25.04 13.5 56.2 86 11.1 52 13.84 0.545
21:23 1019 30.09 848 25.04 13.4 56 85 11 51.7 13.76 0.542
21:24 1019 30.09 848 25.04 13.3 56 84 10.7 51.3 13.68 0.539
21:25 1019 30.09 848 25.04 13.4 56 84 10.7 51.3 13.69 0.539
21:26 1019 30.09 848 25.04 13.4 56.1 84 10.8 51.4 13.7 0.539
21:27 1019 30.09 848 25.04 13.4 56.1 84 10.8 51.5 13.69 0.539
21:28 1019 30.09 848 25.04 13.3 56 85 10.9 51.6 13.67 0.538
21:29 1019 30.09 848 25.04 13.3 55.9 86 10.9 51.7 13.63 0.537
21:30 1019 30.09 848 25.04 13.2 55.7 87 11 51.9 13.58 0.535
21:31 1019 30.09 848 25.04 13.1 55.6 88 11.1 52 13.47 0.53
21:32 1019 30.09 848 25.04 13 55.4 88 11 51.9 13.45 0.53
21:33 1019 30.09 848 25.04 12.9 55.3 89 11.1 52 13.38 0.527
21:34 1019 30.09 848 25.04 12.9 55.2 89 11.1 52 13.32 0.524
21:35 1019 30.09 848 25.04 12.8 55.1 89 11.1 52 13.24 0.521
21:36 1019 30.09 848 25.04 12.8 55.1 90 11.2 52.1 13.22 0.52
21:37 1019 30.09 848 25.04 12.7 54.8 90 11.1 52 13.18 0.519
21:38 1019 30.09 848 25.04 12.7 54.9 90 11.1 52 13.16 0.518
21:39 1019 30.09 848 25.04 12.7 54.8 90 11.2 52.1 13.11 0.516
21:40 1019 30.09 848 25.04 12.7 54.8 90 11.1 52.1 13.1 0.516
21:41 1019 30.09 849 25.07 12.7 54.8 91 11.2 52.1 13.09 0.515
21:42 1019 30.09 848 25.04 12.6 54.7 91 11.2 52.2 13.07 0.515
21:43 1019 30.09 848 25.04 12.6 54.7 91 11.1 52.1 13.06 0.514
21:44 1019 30.09 849 25.07 12.6 54.7 91 11.2 52.1 13.05 0.514
21:45 1019 30.09 849 25.07 12.6 54.7 91 11.2 52.1 13.04 0.513
21:46 1019 30.09 849 25.07 12.6 54.6 91 11.2 52.1 13.03 0.513
21:47 1019 30.09 849 25.07 12.6 54.7 91 11.2 52.2 13.01 0.512
21:48 1019 30.09 849 25.07 12.5 54.6 91 11.2 52.1 12.98 0.511
21:49 1019 30.09 849 25.07 12.5 54.6 92 11.2 52.2 12.98 0.511
21:50 1019 30.09 849 25.07 12.5 54.5 92 11.2 52.2 12.9 0.508
21:51 1019 30.09 849 25.07 12.5 54.4 92 11.2 52.1 12.93 0.509
21:52 1019 30.09 849 25.07 12.5 54.5 92 11.2 52.2 12.94 0.509
21:53 1019 30.09 849 25.07 12.4 54.4 92 11.2 52.1 12.9 0.508
21:54 1019 30.09 849 25.07 12.5 54.4 92 11.2 52.2 12.86 0.506
21:55 1020 30.12 849 25.07 12.4 54.3 93 11.2 52.2 12.85 0.506
21:56 1020 30.12 849 25.07 12.4 54.3 93 11.2 52.2 12.84 0.506
21:57 1020 30.12 849 25.07 12.3 54.2 93 11.2 52.2 12.81 0.504
21:58 1020 30.12 849 25.07 12.4 54.2 93 11.3 52.3 12.82 0.505
21:59 1020 30.12 849 25.07 12.3 54.2 93 11.2 52.2 12.77 0.503
22:00 1020 30.12 849 25.07 12.3 54.2 93 11.2 52.1 12.78 0.503
22:01 1020 30.12 849 25.07 12.3 54.2 93 11.2 52.2 12.76 0.502
22:02 1019 30.09 849 25.07 12.3 54.1 93 11.1 52 12.76 0.502
22:03 1019 30.09 849 25.07 12.3 54.1 93 11.1 52 12.73 0.501
22:04 1019 30.09 849 25.07 12.3 54.2 93 11.2 52.1 12.71 0.5
22:05 1019 30.09 849 25.07 12.3 54.1 93 11.2 52.1 12.72 0.501
22:06 1019 30.09 849 25.07 12.3 54.1 93 11.1 52.1 12.71 0.5
22:07 1019 30.09 849 25.07 12.2 54 93 11.1 52 12.72 0.501
22:08 1019 30.09 849 25.07 12.3 54.1 93 11.1 52 12.7 0.5
22:09 1019 30.09 849 25.07 12.2 54 93 11.1 51.9 12.66 0.498
22:10 1019 30.09 849 25.07 12.3 54.1 93 11.1 52 12.66 0.498
22:11 1019 30.09 849 25.07 12.2 54 93 11.1 52 12.67 0.499
22:12 1019 30.09 849 25.07 12.2 54 93 11.1 51.9 12.68 0.499
22:13 1019 30.09 849 25.07 12.2 54 93 11.1 51.9 12.59 0.496
22:14 1019 30.09 849 25.07 12.3 54.1 93 11.1 52.1 12.58 0.495
22:15 1019 30.09 849 25.07 12.3 54.1 93 11.1 52 12.62 0.497
22:16 1019 30.09 849 25.07 12.3 54.1 93 11.1 52.1 12.59 0.496
22:17 1019 30.09 849 25.07 12.3 54.1 93 11.2 52.1 12.6 0.496
22:18 1019 30.09 849 25.07 12.2 54 93 11.1 52 12.55 0.494
22:19 1019 30.09 849 25.07 12.2 54 93 11.1 52 12.52 0.493
22:20 1019 30.09 849 25.07 12.2 54 93 11.1 51.9 12.53 0.493
22:21 1019 30.09 849 25.07 12.2 53.9 93 11 51.9 12.51 0.493
22:22 1019 30.09 849 25.07 12.2 53.9 92 11 51.8 12.51 0.493
22:23 1019 30.09 849 25.07 12.2 53.9 92 11 51.7 12.48 0.491
22:24 1019 30.09 849 25.07 12.2 53.9 92 10.9 51.6 12.48 0.491
22:25 1019 30.09 849 25.07 12.2 53.9 92 10.9 51.6 12.48 0.491
22:26 1019 30.09 849 25.07 12.2 54 92 10.9 51.6 12.48 0.491
22:27 1019 30.09 849 25.07 12.2 53.9 91 10.8 51.5 12.47 0.491
22:28 1019 30.09 849 25.07 12.2 53.9 91 10.8 51.5 12.45 0.49
22:29 1019 30.09 849 25.07 12.1 53.8 91 10.7 51.3 12.45 0.49
22:30 1019 30.09 849 25.07 12 53.7 91 10.7 51.3 12.36 0.487
22:31 1019 30.09 849 25.07 12 53.7 91 10.7 51.2 12.29 0.484
22:32 1019 30.09 849 25.07 12 53.6 91 10.6 51.2 12.35 0.486
22:33 1019 30.09 849 25.07 12 53.7 91 10.7 51.2 12.27 0.483
22:34 1019 30.09 849 25.07 12 53.6 91 10.7 51.2 12.23 0.481
22:35 1019 30.09 849 25.07 12 53.5 91 10.6 51 12.23 0.481
22:36 1019 30.09 849 25.07 11.9 53.3 91 10.5 50.9 12.15 0.478
22:37 1019 30.09 849 25.07 11.9 53.4 91 10.5 50.9 12.13 0.478
22:38 1019 30.09 849 25.07 11.8 53.3 91 10.5 50.8 12.08 0.476
22:39 1019 30.09 849 25.07 11.8 53.3 91 10.4 50.8 12.1 0.476
22:40 1019 30.09 849 25.07 11.8 53.2 91 10.4 50.7 12.04 0.474
22:41 1019 30.09 849 25.07 11.8 53.2 91 10.4 50.7 12.04 0.474
22:42 1019 30.09 849 25.07 11.7 53.1 91 10.4 50.7 12 0.472
22:43 1019 30.09 849 25.07 11.7 53 91 10.3 50.6 11.96 0.471
22:44 1019 30.09 849 25.07 11.7 53 92 10.4 50.7 11.94 0.47
22:45 1019 30.09 849 25.07 11.7 53 92 10.3 50.6 11.91 0.469
22:46 1019 30.09 849 25.07 11.6 52.9 91 10.3 50.5 11.83 0.466
22:47 1019 30.09 849 25.07 11.6 52.8 92 10.2 50.4 11.79 0.464
22:48 1019 30.09 849 25.07 11.5 52.7 91 10.2 50.3 11.81 0.465
22:49 1019 30.09 849 25.07 11.5 52.8 91 10.2 50.3 11.8 0.465
22:50 1019 30.09 849 25.07 11.5 52.7 91 10.1 50.2 11.76 0.463
22:51 1019 30.09 849 25.07 11.5 52.8 91 10.1 50.2 11.73 0.462
22:52 1019 30.09 849 25.07 11.5 52.7 91 10.1 50.1 11.71 0.461
22:53 1019 30.09 849 25.07 11.5 52.6 91 10 50 11.72 0.461
22:54 1019 30.09 849 25.07 11.4 52.6 91 10 50 11.64 0.458
22:55 1019 30.09 849 25.07 11.4 52.5 91 10 50 11.62 0.457
22:56 1019 30.09 848 25.04 11.4 52.5 91 10 50 11.57 0.456
22:57 1019 30.09 848 25.04 11.3 52.4 91 9.9 49.8 11.62 0.457
22:58 1019 30.09 848 25.04 11.3 52.3 91 9.9 49.8 11.54 0.454
22:59 1019 30.09 848 25.04 11.3 52.3 91 9.9 49.8 11.51 0.453
23:00 1019 30.09 848 25.04 11.3 52.3 91 9.9 49.9 11.53 0.454
23:01 1019 30.09 848 25.04 11.2 52.2 91 9.8 49.6 11.5 0.453
23:02 1019 30.09 848 25.04 11.2 52.1 90 9.6 49.3 11.42 0.45
23:03 1019 30.09 848 25.04 11.1 51.9 91 9.6 49.3 11.29 0.444
23:04 1019 30.09 848 25.04 10.9 51.7 91 9.5 49.1 11.21 0.441
23:05 1019 30.09 848 25.04 10.9 51.5 92 9.5 49.2 11.07 0.436
23:06 1019 30.09 848 25.04 10.7 51.3 92 9.4 49 11.02 0.434
23:07 1019 30.09 848 25.04 10.7 51.2 92 9.4 49 10.97 0.432
23:08 1019 30.09 848 25.04 10.6 51 93 9.5 49.1 10.87 0.428
23:09 1019 30.09 848 25.04 10.6 51 94 9.7 49.5 10.98 0.432
23:10 1019 30.09 848 25.04 10.7 51.2 94 9.8 49.7 11.12 0.438
23:11 1019 30.09 848 25.04 10.7 51.3 94 9.8 49.7 11.09 0.437
23:12 1019 30.09 848 25.04 10.7 51.3 94 9.8 49.7 11.15 0.439
23:13 1019 30.09 848 25.04 10.8 51.4 95 9.9 49.9 11.18 0.44
23:14 1019 30.09 848 25.04 10.9 51.5 94 10 50 11.25 0.443
23:15 1019 30.09 848 25.04 11 51.7 94 10.1 50.1 11.35 0.447
23:16 1019 30.09 848 25.04 11.1 51.9 93 10 50.1 11.41 0.449
23:17 1019 30.09 848 25.04 11.1 52 93 10 50 11.41 0.449
23:18 1019 30.09 848 25.04 11.1 52.1 92 9.9 49.9 11.42 0.45
23:19 1019 30.09 848 25.04 11.1 52 92 9.8 49.7 11.36 0.447
23:20 1019 30.09 848 25.04 11.1 51.9 92 9.8 49.6 11.29 0.444
23:21 1019 30.09 848 25.04 11 51.7 92 9.7 49.4 11.21 0.441
23:22 1019 30.09 848 25.04 10.8 51.5 91 9.4 48.9 11.12 0.438
23:23 1019 30.09 848 25.04 10.6 51.1 91 9.2 48.6 10.88 0.428
23:24 1019 30.09 848 25.04 10.4 50.8 92 9.3 48.7 10.72 0.422
23:25 1019 30.09 848 25.04 10.4 50.8 94 9.5 49 10.76 0.424
23:26 1019 30.09 848 25.04 10.5 50.9 94 9.5 49.1 10.79 0.425
23:27 1019 30.09 848 25.04 10.5 51 93 9.5 49.1 10.81 0.426
23:28 1019 30.09 848 25.04 10.5 50.9 93 9.4 48.9 10.77 0.424
23:29 1019 30.09 848 25.04 10.5 50.8 93 9.4 48.9 10.75 0.423
23:30 1019 30.09 848 25.04 10.5 50.8 93 9.4 48.9 10.75 0.423
23:31 1019 30.09 848 25.04 10.4 50.8 93 9.3 48.8 10.75 0.423
23:32 1019 30.09 848 25.04 10.4 50.7 93 9.3 48.7 10.67 0.42
23:33 1019 30.09 848 25.04 10.3 50.6 93 9.2 48.5 10.64 0.419
23:34 1019 30.09 848 25.04 10.2 50.4 92 9 48.3 10.52 0.414
23:35 1019 30.09 848 25.04 10.2 50.3 93 9.1 48.4 10.47 0.412
23:36 1019 30.09 848 25.04 10.2 50.4 94 9.2 48.6 10.48 0.413
23:37 1019 30.09 849 25.07 10.3 50.5 94 9.3 48.7 10.53 0.415
23:38 1019 30.09 848 25.04 10.3 50.5 94 9.3 48.7 10.57 0.416
23:39 1019 30.09 848 25.04 10.4 50.7 94 9.4 49 10.63 0.419
23:40 1019 30.09 848 25.04 10.4 50.8 93 9.4 48.9 10.69 0.421
23:41 1019 30.09 848 25.04 10.5 50.8 93 9.3 48.8 10.72 0.422
23:42 1019 30.09 848 25.04 10.4 50.8 93 9.3 48.8 10.71 0.422
23:43 1019 30.09 849 25.07 10.5 50.8 93 9.3 48.8 10.71 0.422
23:44 1019 30.09 849 25.07 10.4 50.8 93 9.4 48.9 10.68 0.42
23:45 1019 30.09 849 25.07 10.4 50.8 93 9.3 48.8 10.67 0.42
23:46 1019 30.09 849 25.07 10.4 50.7 92 9.2 48.5 10.66 0.42
23:47 1019 30.09 849 25.07 10.3 50.6 93 9.2 48.5 10.61 0.418
23:48 1019 30.09 849 25.07 10.2 50.4 93 9.1 48.5 10.53 0.415
23:49 1019 30.09 849 25.07 10.2 50.4 93 9.1 48.4 10.56 0.416
23:50 1019 30.09 849 25.07 10.2 50.4 92 9 48.3 10.47 0.412
23:51 1019 30.09 849 25.07 10.1 50.1 93 9 48.1 10.41 0.41
23:52 1019 30.09 849 25.07 10.1 50.1 93 9 48.3 10.39 0.409
23:53 1019 30.09 849 25.07 10.1 50.1 94 9.1 48.4 10.34 0.407
23:54 1019 30.09 849 25.07 10.1 50.3 94 9.1 48.5 10.43 0.411
23:55 1019 30.09 849 25.07 10.1 50.1 93 9 48.2 10.43 0.411
23:56 1019 30.09 849 25.07 10.1 50.1 93 9 48.2 10.38 0.409
23:57 1019 30.09 849 25.07 10 50 93 9 48.1 10.31 0.406
23:58 1019 30.09 849 25.07 10 50.1 93 9 48.1 10.32 0.406
23:59 1019 30.09 849 25.07 10 50.1 94 9.1 48.3 10.3 0.406
24:00 1019 30.09 849 25.07 10.1 50.1 94 9.2 48.5 10.37 0.408